<?xml version="1.0" encoding="UTF-8" standalone="no"?>
<gpx xmlns="http://www.topografix.com/GPX/1/1" creator="GPS TrackMaker" version="1.1" xmlns:xsi="http://www.w3.org/2001/XMLSchema-instance" xsi:schemaLocation="http://www.topografix.com/GPX/1/1 http://www.topografix.com/GPX/1/1/gpx.xsd"><metadata><link href="http://www.trackmaker.com"><text>Geo Studio Tecnology Ltd</text></link><time>2012-03-04T23:03:47Z</time><bounds minlat="36.825084" minlon="-4.385439" maxlat="36.854189" maxlon="-4.360155"/></metadata><trk><name>04-MAR-12 03:59:56 PM</name><trkseg><trkpt lat="36.825371403" lon="-4.364594277"><ele>712.950000</ele><time>2012-03-04T09:52:35Z</time></trkpt><trkpt lat="36.825315580" lon="-4.364568712"><ele>712.470000</ele><time>2012-03-04T09:52:54Z</time></trkpt><trkpt lat="36.825263193" lon="-4.364597965"><ele>702.860000</ele><time>2012-03-04T09:53:10Z</time></trkpt><trkpt lat="36.825142661" lon="-4.364604000"><ele>702.380000</ele><time>2012-03-04T09:53:27Z</time></trkpt><trkpt lat="36.825083988" lon="-4.364592768"><ele>701.420000</ele><time>2012-03-04T09:53:42Z</time></trkpt><trkpt lat="36.825140985" lon="-4.364526635"><ele>701.420000</ele><time>2012-03-04T09:53:59Z</time></trkpt><trkpt lat="36.825225893" lon="-4.364448516"><ele>700.940000</ele><time>2012-03-04T09:54:17Z</time></trkpt><trkpt lat="36.825321280" lon="-4.364333935"><ele>700.460000</ele><time>2012-03-04T09:54:35Z</time></trkpt><trkpt lat="36.825390849" lon="-4.364140648"><ele>699.980000</ele><time>2012-03-04T09:54:50Z</time></trkpt><trkpt lat="36.825415660" lon="-4.364024475"><ele>699.020000</ele><time>2012-03-04T09:55:04Z</time></trkpt><trkpt lat="36.825438878" lon="-4.363959348"><ele>699.020000</ele><time>2012-03-04T09:55:23Z</time></trkpt><trkpt lat="36.825460671" lon="-4.363714429"><ele>697.570000</ele><time>2012-03-04T09:55:30Z</time></trkpt><trkpt lat="36.825417336" lon="-4.363520388"><ele>696.610000</ele><time>2012-03-04T09:55:41Z</time></trkpt><trkpt lat="36.825344414" lon="-4.363353001"><ele>696.610000</ele><time>2012-03-04T09:55:51Z</time></trkpt><trkpt lat="36.825358495" lon="-4.363218891"><ele>695.650000</ele><time>2012-03-04T09:55:56Z</time></trkpt><trkpt lat="36.825493947" lon="-4.363139179"><ele>694.690000</ele><time>2012-03-04T09:56:10Z</time></trkpt><trkpt lat="36.825510208" lon="-4.363143873"><ele>694.690000</ele><time>2012-03-04T09:56:11Z</time></trkpt><trkpt lat="36.825548429" lon="-4.363169773"><ele>694.210000</ele><time>2012-03-04T09:56:14Z</time></trkpt><trkpt lat="36.825673152" lon="-4.363213275"><ele>694.210000</ele><time>2012-03-04T09:56:23Z</time></trkpt><trkpt lat="36.825703913" lon="-4.363220399"><ele>693.730000</ele><time>2012-03-04T09:56:26Z</time></trkpt><trkpt lat="36.825852105" lon="-4.363203384"><ele>693.730000</ele><time>2012-03-04T09:56:38Z</time></trkpt><trkpt lat="36.825914551" lon="-4.363162480"><ele>693.730000</ele><time>2012-03-04T09:56:44Z</time></trkpt><trkpt lat="36.826031562" lon="-4.363100873"><ele>693.730000</ele><time>2012-03-04T09:56:55Z</time></trkpt><trkpt lat="36.826086966" lon="-4.363015797"><ele>693.250000</ele><time>2012-03-04T09:57:07Z</time></trkpt><trkpt lat="36.826101467" lon="-4.362990735"><ele>693.250000</ele><time>2012-03-04T09:57:11Z</time></trkpt><trkpt lat="36.826206576" lon="-4.362863079"><ele>692.770000</ele><time>2012-03-04T09:57:23Z</time></trkpt><trkpt lat="36.826321995" lon="-4.362702649"><ele>692.290000</ele><time>2012-03-04T09:57:37Z</time></trkpt><trkpt lat="36.826341441" lon="-4.362670211"><ele>692.290000</ele><time>2012-03-04T09:57:39Z</time></trkpt><trkpt lat="36.826450741" lon="-4.362505255"><ele>691.810000</ele><time>2012-03-04T09:57:52Z</time></trkpt><trkpt lat="36.826469265" lon="-4.362446247"><ele>691.330000</ele><time>2012-03-04T09:58:04Z</time></trkpt><trkpt lat="36.826464236" lon="-4.362205602"><ele>690.840000</ele><time>2012-03-04T09:58:18Z</time></trkpt><trkpt lat="36.826450322" lon="-4.362072581"><ele>690.840000</ele><time>2012-03-04T09:58:25Z</time></trkpt><trkpt lat="36.826425595" lon="-4.361918774"><ele>690.360000</ele><time>2012-03-04T09:58:35Z</time></trkpt><trkpt lat="36.826415621" lon="-4.361848282"><ele>689.880000</ele><time>2012-03-04T09:58:39Z</time></trkpt><trkpt lat="36.826363821" lon="-4.361602273"><ele>688.920000</ele><time>2012-03-04T09:58:53Z</time></trkpt><trkpt lat="36.826365413" lon="-4.361559693"><ele>688.920000</ele><time>2012-03-04T09:58:56Z</time></trkpt><trkpt lat="36.826383602" lon="-4.361503366"><ele>688.440000</ele><time>2012-03-04T09:59:00Z</time></trkpt><trkpt lat="36.826512432" lon="-4.361451147"><ele>687.000000</ele><time>2012-03-04T09:59:16Z</time></trkpt><trkpt lat="36.826542523" lon="-4.361467240"><ele>687.000000</ele><time>2012-03-04T09:59:19Z</time></trkpt><trkpt lat="36.826616619" lon="-4.361621970"><ele>686.040000</ele><time>2012-03-04T09:59:33Z</time></trkpt><trkpt lat="36.826719297" lon="-4.361754069"><ele>686.040000</ele><time>2012-03-04T09:59:47Z</time></trkpt><trkpt lat="36.826832369" lon="-4.361859094"><ele>685.560000</ele><time>2012-03-04T10:00:00Z</time></trkpt><trkpt lat="36.826967904" lon="-4.361999407"><ele>676.910000</ele><time>2012-03-04T10:00:13Z</time></trkpt><trkpt lat="36.827060189" lon="-4.362076521"><ele>673.540000</ele><time>2012-03-04T10:00:26Z</time></trkpt><trkpt lat="36.827142667" lon="-4.362074425"><ele>676.420000</ele><time>2012-03-04T10:00:33Z</time></trkpt><trkpt lat="36.827299409" lon="-4.361991612"><ele>677.870000</ele><time>2012-03-04T10:00:49Z</time></trkpt><trkpt lat="36.827457743" lon="-4.361958923"><ele>678.350000</ele><time>2012-03-04T10:01:02Z</time></trkpt><trkpt lat="36.827638960" lon="-4.362033773"><ele>678.830000</ele><time>2012-03-04T10:01:18Z</time></trkpt><trkpt lat="36.827678103" lon="-4.362140475"><ele>678.830000</ele><time>2012-03-04T10:01:27Z</time></trkpt><trkpt lat="36.827645581" lon="-4.362203255"><ele>679.310000</ele><time>2012-03-04T10:01:33Z</time></trkpt><trkpt lat="36.827502167" lon="-4.362300318"><ele>679.310000</ele><time>2012-03-04T10:01:49Z</time></trkpt><trkpt lat="36.827425975" lon="-4.362431327"><ele>679.310000</ele><time>2012-03-04T10:02:03Z</time></trkpt><trkpt lat="36.827420443" lon="-4.362443397"><ele>679.310000</ele><time>2012-03-04T10:02:04Z</time></trkpt><trkpt lat="36.827353891" lon="-4.362665350"><ele>679.790000</ele><time>2012-03-04T10:02:21Z</time></trkpt><trkpt lat="36.827350454" lon="-4.362832485"><ele>679.790000</ele><time>2012-03-04T10:02:33Z</time></trkpt><trkpt lat="36.827354226" lon="-4.363016468"><ele>680.270000</ele><time>2012-03-04T10:02:46Z</time></trkpt><trkpt lat="36.827413654" lon="-4.363180082"><ele>679.790000</ele><time>2012-03-04T10:03:01Z</time></trkpt><trkpt lat="36.827519685" lon="-4.363330202"><ele>679.310000</ele><time>2012-03-04T10:03:15Z</time></trkpt><trkpt lat="36.827604007" lon="-4.363487614"><ele>679.790000</ele><time>2012-03-04T10:03:28Z</time></trkpt><trkpt lat="36.827695873" lon="-4.363548467"><ele>679.790000</ele><time>2012-03-04T10:03:39Z</time></trkpt><trkpt lat="36.827754211" lon="-4.363556597"><ele>679.310000</ele><time>2012-03-04T10:03:58Z</time></trkpt><trkpt lat="36.827945570" lon="-4.363615103"><ele>678.830000</ele><time>2012-03-04T10:04:11Z</time></trkpt><trkpt lat="36.828155033" lon="-4.363771677"><ele>678.350000</ele><time>2012-03-04T10:04:25Z</time></trkpt><trkpt lat="36.828300962" lon="-4.363868237"><ele>678.350000</ele><time>2012-03-04T10:04:45Z</time></trkpt><trkpt lat="36.828598939" lon="-4.363972759"><ele>698.050000</ele><time>2012-03-04T10:05:02Z</time></trkpt><trkpt lat="36.828740342" lon="-4.363987343"><ele>698.530000</ele><time>2012-03-04T10:05:18Z</time></trkpt><trkpt lat="36.828900855" lon="-4.363865135"><ele>691.810000</ele><time>2012-03-04T10:05:37Z</time></trkpt><trkpt lat="36.829058267" lon="-4.363692468"><ele>684.600000</ele><time>2012-03-04T10:05:54Z</time></trkpt><trkpt lat="36.829193719" lon="-4.363536565"><ele>684.120000</ele><time>2012-03-04T10:06:09Z</time></trkpt><trkpt lat="36.829199754" lon="-4.363524830"><ele>684.120000</ele><time>2012-03-04T10:06:10Z</time></trkpt><trkpt lat="36.829398908" lon="-4.363426510"><ele>684.120000</ele><time>2012-03-04T10:06:27Z</time></trkpt><trkpt lat="36.829464790" lon="-4.363488620"><ele>684.120000</ele><time>2012-03-04T10:06:33Z</time></trkpt><trkpt lat="36.829583477" lon="-4.363635974"><ele>684.120000</ele><time>2012-03-04T10:06:49Z</time></trkpt><trkpt lat="36.829704428" lon="-4.363775784"><ele>685.080000</ele><time>2012-03-04T10:07:03Z</time></trkpt><trkpt lat="36.829793276" lon="-4.363991786"><ele>696.610000</ele><time>2012-03-04T10:07:17Z</time></trkpt><trkpt lat="36.829866534" lon="-4.364117514"><ele>697.570000</ele><time>2012-03-04T10:07:29Z</time></trkpt><trkpt lat="36.829946498" lon="-4.364310633"><ele>701.900000</ele><time>2012-03-04T10:07:45Z</time></trkpt><trkpt lat="36.829950605" lon="-4.364320859"><ele>702.380000</ele><time>2012-03-04T10:07:46Z</time></trkpt><trkpt lat="36.830033502" lon="-4.364438793"><ele>700.460000</ele><time>2012-03-04T10:07:58Z</time></trkpt><trkpt lat="36.830160487" lon="-4.364507357"><ele>697.570000</ele><time>2012-03-04T10:08:12Z</time></trkpt><trkpt lat="36.830394175" lon="-4.364426388"><ele>693.250000</ele><time>2012-03-04T10:08:27Z</time></trkpt><trkpt lat="36.830428205" lon="-4.364400571"><ele>693.730000</ele><time>2012-03-04T10:08:29Z</time></trkpt><trkpt lat="36.830443377" lon="-4.364378611"><ele>692.770000</ele><time>2012-03-04T10:08:32Z</time></trkpt><trkpt lat="36.830561813" lon="-4.364255229"><ele>695.650000</ele><time>2012-03-04T10:08:47Z</time></trkpt><trkpt lat="36.830597771" lon="-4.364212817"><ele>695.650000</ele><time>2012-03-04T10:08:51Z</time></trkpt><trkpt lat="36.830683351" lon="-4.364111731"><ele>696.130000</ele><time>2012-03-04T10:09:01Z</time></trkpt><trkpt lat="36.830785526" lon="-4.363926826"><ele>696.130000</ele><time>2012-03-04T10:09:17Z</time></trkpt><trkpt lat="36.830890719" lon="-4.363767318"><ele>699.020000</ele><time>2012-03-04T10:09:33Z</time></trkpt><trkpt lat="36.830920810" lon="-4.363620970"><ele>699.980000</ele><time>2012-03-04T10:09:43Z</time></trkpt><trkpt lat="36.830989709" lon="-4.363462720"><ele>699.980000</ele><time>2012-03-04T10:09:56Z</time></trkpt><trkpt lat="36.831052657" lon="-4.363310421"><ele>699.020000</ele><time>2012-03-04T10:10:10Z</time></trkpt><trkpt lat="36.831150474" lon="-4.363196595"><ele>698.050000</ele><time>2012-03-04T10:10:22Z</time></trkpt><trkpt lat="36.831189785" lon="-4.363106238"><ele>698.530000</ele><time>2012-03-04T10:10:33Z</time></trkpt><trkpt lat="36.831226330" lon="-4.363004481"><ele>699.020000</ele><time>2012-03-04T10:10:41Z</time></trkpt><trkpt lat="36.831426742" lon="-4.362986460"><ele>704.780000</ele><time>2012-03-04T10:11:00Z</time></trkpt><trkpt lat="36.831468651" lon="-4.362998279"><ele>703.820000</ele><time>2012-03-04T10:11:07Z</time></trkpt><trkpt lat="36.831561355" lon="-4.363082266"><ele>702.860000</ele><time>2012-03-04T10:11:22Z</time></trkpt><trkpt lat="36.831580466" lon="-4.363284856"><ele>702.860000</ele><time>2012-03-04T10:11:34Z</time></trkpt><trkpt lat="36.831569737" lon="-4.363515945"><ele>701.900000</ele><time>2012-03-04T10:11:49Z</time></trkpt><trkpt lat="36.831580130" lon="-4.363697833"><ele>703.820000</ele><time>2012-03-04T10:11:58Z</time></trkpt><trkpt lat="36.831591697" lon="-4.363759691"><ele>706.230000</ele><time>2012-03-04T10:12:02Z</time></trkpt><trkpt lat="36.831687251" lon="-4.363862705"><ele>701.420000</ele><time>2012-03-04T10:12:16Z</time></trkpt><trkpt lat="36.831732849" lon="-4.363890868"><ele>701.420000</ele><time>2012-03-04T10:12:19Z</time></trkpt><trkpt lat="36.831917418" lon="-4.364008717"><ele>699.020000</ele><time>2012-03-04T10:12:34Z</time></trkpt><trkpt lat="36.832047924" lon="-4.364040317"><ele>698.050000</ele><time>2012-03-04T10:12:49Z</time></trkpt><trkpt lat="36.832075082" lon="-4.364058757"><ele>697.570000</ele><time>2012-03-04T10:12:55Z</time></trkpt><trkpt lat="36.832113890" lon="-4.364292612"><ele>707.190000</ele><time>2012-03-04T10:13:08Z</time></trkpt><trkpt lat="36.832034346" lon="-4.364441726"><ele>713.440000</ele><time>2012-03-04T10:13:22Z</time></trkpt><trkpt lat="36.832010038" lon="-4.364475254"><ele>714.880000</ele><time>2012-03-04T10:13:25Z</time></trkpt><trkpt lat="36.831900990" lon="-4.364586063"><ele>711.990000</ele><time>2012-03-04T10:13:39Z</time></trkpt><trkpt lat="36.831834689" lon="-4.364707181"><ele>708.630000</ele><time>2012-03-04T10:13:51Z</time></trkpt><trkpt lat="36.831711559" lon="-4.364928464"><ele>708.150000</ele><time>2012-03-04T10:14:08Z</time></trkpt><trkpt lat="36.831705105" lon="-4.364957297"><ele>707.190000</ele><time>2012-03-04T10:14:10Z</time></trkpt><trkpt lat="36.831708457" lon="-4.365074392"><ele>703.820000</ele><time>2012-03-04T10:14:18Z</time></trkpt><trkpt lat="36.831773333" lon="-4.365214203"><ele>702.380000</ele><time>2012-03-04T10:14:30Z</time></trkpt><trkpt lat="36.831833515" lon="-4.365248149"><ele>703.340000</ele><time>2012-03-04T10:14:33Z</time></trkpt><trkpt lat="36.831955891" lon="-4.365168354"><ele>699.020000</ele><time>2012-03-04T10:14:45Z</time></trkpt><trkpt lat="36.832212461" lon="-4.365119487"><ele>690.360000</ele><time>2012-03-04T10:15:01Z</time></trkpt><trkpt lat="36.832461488" lon="-4.365037680"><ele>683.630000</ele><time>2012-03-04T10:15:19Z</time></trkpt><trkpt lat="36.832672209" lon="-4.364977581"><ele>681.230000</ele><time>2012-03-04T10:15:37Z</time></trkpt><trkpt lat="36.832728786" lon="-4.364977498"><ele>682.190000</ele><time>2012-03-04T10:15:44Z</time></trkpt><trkpt lat="36.832827861" lon="-4.365053857"><ele>698.050000</ele><time>2012-03-04T10:16:00Z</time></trkpt><trkpt lat="36.832930371" lon="-4.365087804"><ele>697.090000</ele><time>2012-03-04T10:16:12Z</time></trkpt><trkpt lat="36.832957864" lon="-4.365130803"><ele>696.610000</ele><time>2012-03-04T10:16:31Z</time></trkpt><trkpt lat="36.832963983" lon="-4.365139520"><ele>696.610000</ele><time>2012-03-04T10:16:50Z</time></trkpt><trkpt lat="36.833073366" lon="-4.365469683"><ele>701.420000</ele><time>2012-03-04T10:17:08Z</time></trkpt><trkpt lat="36.833085856" lon="-4.365544785"><ele>702.860000</ele><time>2012-03-04T10:17:12Z</time></trkpt><trkpt lat="36.833081413" lon="-4.365578815"><ele>704.300000</ele><time>2012-03-04T10:17:14Z</time></trkpt><trkpt lat="36.833057273" lon="-4.365749136"><ele>708.150000</ele><time>2012-03-04T10:17:23Z</time></trkpt><trkpt lat="36.833097171" lon="-4.365805546"><ele>705.260000</ele><time>2012-03-04T10:17:28Z</time></trkpt><trkpt lat="36.833200771" lon="-4.365987098"><ele>697.570000</ele><time>2012-03-04T10:17:42Z</time></trkpt><trkpt lat="36.833241675" lon="-4.366146941"><ele>695.170000</ele><time>2012-03-04T10:17:58Z</time></trkpt><trkpt lat="36.833263971" lon="-4.366208883"><ele>692.290000</ele><time>2012-03-04T10:18:05Z</time></trkpt><trkpt lat="36.833488438" lon="-4.366297061"><ele>690.840000</ele><time>2012-03-04T10:18:22Z</time></trkpt><trkpt lat="36.833517440" lon="-4.366299072"><ele>691.330000</ele><time>2012-03-04T10:18:24Z</time></trkpt><trkpt lat="36.833586758" lon="-4.366283231"><ele>691.330000</ele><time>2012-03-04T10:18:29Z</time></trkpt><trkpt lat="36.833656495" lon="-4.366306616"><ele>691.330000</ele><time>2012-03-04T10:18:35Z</time></trkpt><trkpt lat="36.833767640" lon="-4.366340898"><ele>699.020000</ele><time>2012-03-04T10:18:49Z</time></trkpt><trkpt lat="36.833973415" lon="-4.366365876"><ele>705.260000</ele><time>2012-03-04T10:19:06Z</time></trkpt><trkpt lat="36.833999651" lon="-4.366362104"><ele>703.820000</ele><time>2012-03-04T10:19:10Z</time></trkpt><trkpt lat="36.834202157" lon="-4.366320362"><ele>703.820000</ele><time>2012-03-04T10:19:24Z</time></trkpt><trkpt lat="36.834345236" lon="-4.366064966"><ele>706.230000</ele><time>2012-03-04T10:19:40Z</time></trkpt><trkpt lat="36.834451435" lon="-4.365988020"><ele>705.750000</ele><time>2012-03-04T10:19:52Z</time></trkpt><trkpt lat="36.834495943" lon="-4.365930017"><ele>706.710000</ele><time>2012-03-04T10:19:56Z</time></trkpt><trkpt lat="36.834537769" lon="-4.365874361"><ele>707.670000</ele><time>2012-03-04T10:20:02Z</time></trkpt><trkpt lat="36.834621085" lon="-4.365828764"><ele>707.670000</ele><time>2012-03-04T10:20:18Z</time></trkpt><trkpt lat="36.834674142" lon="-4.365886012"><ele>706.710000</ele><time>2012-03-04T10:20:24Z</time></trkpt><trkpt lat="36.834726529" lon="-4.366108300"><ele>706.710000</ele><time>2012-03-04T10:20:37Z</time></trkpt><trkpt lat="36.834810684" lon="-4.366225814"><ele>706.710000</ele><time>2012-03-04T10:20:50Z</time></trkpt><trkpt lat="36.834919145" lon="-4.366357410"><ele>707.670000</ele><time>2012-03-04T10:21:03Z</time></trkpt><trkpt lat="36.835059039" lon="-4.366517002"><ele>709.110000</ele><time>2012-03-04T10:21:20Z</time></trkpt><trkpt lat="36.835192395" lon="-4.366758568"><ele>716.800000</ele><time>2012-03-04T10:21:38Z</time></trkpt><trkpt lat="36.835233886" lon="-4.366827719"><ele>721.610000</ele><time>2012-03-04T10:21:48Z</time></trkpt><trkpt lat="36.835289793" lon="-4.366980940"><ele>724.010000</ele><time>2012-03-04T10:21:58Z</time></trkpt><trkpt lat="36.835312005" lon="-4.367085043"><ele>727.370000</ele><time>2012-03-04T10:22:05Z</time></trkpt><trkpt lat="36.835323321" lon="-4.367134329"><ele>728.340000</ele><time>2012-03-04T10:22:09Z</time></trkpt><trkpt lat="36.835416528" lon="-4.367270619"><ele>724.010000</ele><time>2012-03-04T10:22:24Z</time></trkpt><trkpt lat="36.835528174" lon="-4.367495086"><ele>727.370000</ele><time>2012-03-04T10:22:41Z</time></trkpt><trkpt lat="36.835556505" lon="-4.367645709"><ele>732.660000</ele><time>2012-03-04T10:22:56Z</time></trkpt><trkpt lat="36.835608473" lon="-4.367781160"><ele>730.260000</ele><time>2012-03-04T10:23:09Z</time></trkpt><trkpt lat="36.835709643" lon="-4.367878558"><ele>727.860000</ele><time>2012-03-04T10:23:23Z</time></trkpt><trkpt lat="36.835866803" lon="-4.367957935"><ele>732.180000</ele><time>2012-03-04T10:23:38Z</time></trkpt><trkpt lat="36.836033687" lon="-4.368037228"><ele>735.550000</ele><time>2012-03-04T10:23:56Z</time></trkpt><trkpt lat="36.836227728" lon="-4.368094308"><ele>734.580000</ele><time>2012-03-04T10:24:12Z</time></trkpt><trkpt lat="36.836280702" lon="-4.368054075"><ele>734.580000</ele><time>2012-03-04T10:24:16Z</time></trkpt><trkpt lat="36.836324623" lon="-4.367997665"><ele>735.550000</ele><time>2012-03-04T10:24:22Z</time></trkpt><trkpt lat="36.836361839" lon="-4.367771102"><ele>736.510000</ele><time>2012-03-04T10:24:37Z</time></trkpt><trkpt lat="36.836404754" lon="-4.367539091"><ele>734.580000</ele><time>2012-03-04T10:24:52Z</time></trkpt><trkpt lat="36.836416572" lon="-4.367351839"><ele>736.030000</ele><time>2012-03-04T10:25:07Z</time></trkpt><trkpt lat="36.836441215" lon="-4.367158888"><ele>736.030000</ele><time>2012-03-04T10:25:20Z</time></trkpt><trkpt lat="36.836441718" lon="-4.367078925"><ele>735.550000</ele><time>2012-03-04T10:25:25Z</time></trkpt><trkpt lat="36.836370220" lon="-4.366770722"><ele>729.780000</ele><time>2012-03-04T10:25:44Z</time></trkpt><trkpt lat="36.836300651" lon="-4.366517589"><ele>726.890000</ele><time>2012-03-04T10:26:01Z</time></trkpt><trkpt lat="36.836280786" lon="-4.366314495"><ele>724.970000</ele><time>2012-03-04T10:26:18Z</time></trkpt><trkpt lat="36.836336274" lon="-4.366067061"><ele>723.050000</ele><time>2012-03-04T10:26:36Z</time></trkpt><trkpt lat="36.836351780" lon="-4.365781406"><ele>720.650000</ele><time>2012-03-04T10:26:55Z</time></trkpt><trkpt lat="36.836444736" lon="-4.365500864"><ele>717.760000</ele><time>2012-03-04T10:27:15Z</time></trkpt><trkpt lat="36.836377177" lon="-4.365238762"><ele>720.160000</ele><time>2012-03-04T10:27:33Z</time></trkpt><trkpt lat="36.836208953" lon="-4.365045726"><ele>727.370000</ele><time>2012-03-04T10:27:51Z</time></trkpt><trkpt lat="36.836099988" lon="-4.364847075"><ele>729.780000</ele><time>2012-03-04T10:28:07Z</time></trkpt><trkpt lat="36.836041482" lon="-4.364703661"><ele>731.220000</ele><time>2012-03-04T10:28:17Z</time></trkpt><trkpt lat="36.835912736" lon="-4.364458742"><ele>733.620000</ele><time>2012-03-04T10:28:35Z</time></trkpt><trkpt lat="36.835813830" lon="-4.364253469"><ele>733.140000</ele><time>2012-03-04T10:28:50Z</time></trkpt><trkpt lat="36.835728250" lon="-4.364089686"><ele>733.140000</ele><time>2012-03-04T10:29:02Z</time></trkpt><trkpt lat="36.835708469" lon="-4.364114665"><ele>733.140000</ele><time>2012-03-04T10:29:20Z</time></trkpt><trkpt lat="36.835704865" lon="-4.364107205"><ele>734.580000</ele><time>2012-03-04T10:29:50Z</time></trkpt><trkpt lat="36.835681982" lon="-4.364067307"><ele>736.030000</ele><time>2012-03-04T10:29:52Z</time></trkpt><trkpt lat="36.835654993" lon="-4.363942333"><ele>736.510000</ele><time>2012-03-04T10:30:02Z</time></trkpt><trkpt lat="36.835643761" lon="-4.363895645"><ele>735.070000</ele><time>2012-03-04T10:30:05Z</time></trkpt><trkpt lat="36.835632613" lon="-4.363793973"><ele>732.180000</ele><time>2012-03-04T10:30:14Z</time></trkpt><trkpt lat="36.835652394" lon="-4.363578307"><ele>734.580000</ele><time>2012-03-04T10:30:27Z</time></trkpt><trkpt lat="36.835663710" lon="-4.363543270"><ele>735.070000</ele><time>2012-03-04T10:30:29Z</time></trkpt><trkpt lat="36.835654490" lon="-4.363494320"><ele>735.070000</ele><time>2012-03-04T10:30:32Z</time></trkpt><trkpt lat="36.835652310" lon="-4.363422571"><ele>735.550000</ele><time>2012-03-04T10:30:37Z</time></trkpt><trkpt lat="36.835654657" lon="-4.363351157"><ele>735.550000</ele><time>2012-03-04T10:30:42Z</time></trkpt><trkpt lat="36.835667985" lon="-4.363274463"><ele>735.070000</ele><time>2012-03-04T10:30:46Z</time></trkpt><trkpt lat="36.835679635" lon="-4.363138927"><ele>735.550000</ele><time>2012-03-04T10:30:54Z</time></trkpt><trkpt lat="36.835668571" lon="-4.363084361"><ele>735.070000</ele><time>2012-03-04T10:30:57Z</time></trkpt><trkpt lat="36.835639989" lon="-4.362871880"><ele>733.140000</ele><time>2012-03-04T10:31:09Z</time></trkpt><trkpt lat="36.835572012" lon="-4.362659985"><ele>733.140000</ele><time>2012-03-04T10:31:21Z</time></trkpt><trkpt lat="36.835578382" lon="-4.362590835"><ele>733.140000</ele><time>2012-03-04T10:31:26Z</time></trkpt><trkpt lat="36.835605037" lon="-4.362497879"><ele>734.100000</ele><time>2012-03-04T10:31:31Z</time></trkpt><trkpt lat="36.835730095" lon="-4.362398554"><ele>734.100000</ele><time>2012-03-04T10:31:43Z</time></trkpt><trkpt lat="36.835821290" lon="-4.362429986"><ele>734.580000</ele><time>2012-03-04T10:31:50Z</time></trkpt><trkpt lat="36.835955652" lon="-4.362522271"><ele>733.620000</ele><time>2012-03-04T10:32:02Z</time></trkpt><trkpt lat="36.835975181" lon="-4.362529898"><ele>733.140000</ele><time>2012-03-04T10:32:06Z</time></trkpt><trkpt lat="36.836031675" lon="-4.362582620"><ele>733.140000</ele><time>2012-03-04T10:32:11Z</time></trkpt><trkpt lat="36.836067047" lon="-4.362669541"><ele>733.620000</ele><time>2012-03-04T10:32:17Z</time></trkpt><trkpt lat="36.836070987" lon="-4.362711199"><ele>733.620000</ele><time>2012-03-04T10:32:19Z</time></trkpt><trkpt lat="36.836188836" lon="-4.362853356"><ele>735.070000</ele><time>2012-03-04T10:32:31Z</time></trkpt><trkpt lat="36.836289670" lon="-4.362918148"><ele>734.580000</ele><time>2012-03-04T10:32:39Z</time></trkpt><trkpt lat="36.836316660" lon="-4.362954022"><ele>735.070000</ele><time>2012-03-04T10:32:43Z</time></trkpt><trkpt lat="36.836368460" lon="-4.363032226"><ele>736.030000</ele><time>2012-03-04T10:32:50Z</time></trkpt><trkpt lat="36.836531404" lon="-4.363170108"><ele>739.390000</ele><time>2012-03-04T10:33:04Z</time></trkpt><trkpt lat="36.836682363" lon="-4.363217298"><ele>742.280000</ele><time>2012-03-04T10:33:17Z</time></trkpt><trkpt lat="36.836762745" lon="-4.363191985"><ele>744.200000</ele><time>2012-03-04T10:33:25Z</time></trkpt><trkpt lat="36.836840445" lon="-4.363101628"><ele>744.680000</ele><time>2012-03-04T10:33:33Z</time></trkpt><trkpt lat="36.836814797" lon="-4.362877328"><ele>747.560000</ele><time>2012-03-04T10:33:47Z</time></trkpt><trkpt lat="36.836812785" lon="-4.362726454"><ele>747.080000</ele><time>2012-03-04T10:33:59Z</time></trkpt><trkpt lat="36.836878331" lon="-4.362592930"><ele>748.040000</ele><time>2012-03-04T10:34:10Z</time></trkpt><trkpt lat="36.836891240" lon="-4.362553451"><ele>748.520000</ele><time>2012-03-04T10:34:13Z</time></trkpt><trkpt lat="36.836953266" lon="-4.362438284"><ele>749.490000</ele><time>2012-03-04T10:34:22Z</time></trkpt><trkpt lat="36.836983105" lon="-4.362413473"><ele>749.000000</ele><time>2012-03-04T10:34:27Z</time></trkpt><trkpt lat="36.837036666" lon="-4.362278022"><ele>749.000000</ele><time>2012-03-04T10:34:36Z</time></trkpt><trkpt lat="36.837174799" lon="-4.362105355"><ele>748.040000</ele><time>2012-03-04T10:34:51Z</time></trkpt><trkpt lat="36.837225677" lon="-4.361969149"><ele>747.560000</ele><time>2012-03-04T10:35:02Z</time></trkpt><trkpt lat="36.837227689" lon="-4.361924725"><ele>747.080000</ele><time>2012-03-04T10:35:05Z</time></trkpt><trkpt lat="36.837239759" lon="-4.361887425"><ele>748.040000</ele><time>2012-03-04T10:35:09Z</time></trkpt><trkpt lat="36.837246381" lon="-4.361823974"><ele>749.000000</ele><time>2012-03-04T10:35:14Z</time></trkpt><trkpt lat="36.837235065" lon="-4.361776616"><ele>749.490000</ele><time>2012-03-04T10:35:18Z</time></trkpt><trkpt lat="36.837219726" lon="-4.361524656"><ele>756.210000</ele><time>2012-03-04T10:35:38Z</time></trkpt><trkpt lat="36.837212518" lon="-4.361494649"><ele>757.180000</ele><time>2012-03-04T10:35:40Z</time></trkpt><trkpt lat="36.837185528" lon="-4.361236822"><ele>760.060000</ele><time>2012-03-04T10:35:58Z</time></trkpt><trkpt lat="36.837123586" lon="-4.361012690"><ele>758.140000</ele><time>2012-03-04T10:36:13Z</time></trkpt><trkpt lat="36.837085700" lon="-4.360806914"><ele>758.620000</ele><time>2012-03-04T10:36:28Z</time></trkpt><trkpt lat="36.837079162" lon="-4.360642042"><ele>755.730000</ele><time>2012-03-04T10:36:42Z</time></trkpt><trkpt lat="36.837094836" lon="-4.360591583"><ele>753.330000</ele><time>2012-03-04T10:36:47Z</time></trkpt><trkpt lat="36.837166082" lon="-4.360547410"><ele>749.000000</ele><time>2012-03-04T10:37:00Z</time></trkpt><trkpt lat="36.837279825" lon="-4.360610778"><ele>745.160000</ele><time>2012-03-04T10:37:12Z</time></trkpt><trkpt lat="36.837344198" lon="-4.360644221"><ele>743.720000</ele><time>2012-03-04T10:37:19Z</time></trkpt><trkpt lat="36.837362973" lon="-4.360670121"><ele>744.680000</ele><time>2012-03-04T10:37:21Z</time></trkpt><trkpt lat="36.837387532" lon="-4.360678755"><ele>744.200000</ele><time>2012-03-04T10:37:23Z</time></trkpt><trkpt lat="36.837432543" lon="-4.360687304"><ele>744.680000</ele><time>2012-03-04T10:37:26Z</time></trkpt><trkpt lat="36.837542430" lon="-4.360743715"><ele>745.640000</ele><time>2012-03-04T10:37:35Z</time></trkpt><trkpt lat="36.837661536" lon="-4.360715468"><ele>749.970000</ele><time>2012-03-04T10:37:45Z</time></trkpt><trkpt lat="36.837722557" lon="-4.360608766"><ele>752.370000</ele><time>2012-03-04T10:37:55Z</time></trkpt><trkpt lat="36.837776369" lon="-4.360440038"><ele>755.250000</ele><time>2012-03-04T10:38:07Z</time></trkpt><trkpt lat="36.837880136" lon="-4.360377677"><ele>756.210000</ele><time>2012-03-04T10:38:15Z</time></trkpt><trkpt lat="36.837956831" lon="-4.360277681"><ele>757.180000</ele><time>2012-03-04T10:38:24Z</time></trkpt><trkpt lat="36.837959597" lon="-4.360154634"><ele>759.580000</ele><time>2012-03-04T10:38:35Z</time></trkpt><trkpt lat="36.838042997" lon="-4.360170141"><ele>759.580000</ele><time>2012-03-04T10:38:47Z</time></trkpt><trkpt lat="36.838064455" lon="-4.360262509"><ele>759.580000</ele><time>2012-03-04T10:38:58Z</time></trkpt><trkpt lat="36.838210886" lon="-4.360424532"><ele>760.540000</ele><time>2012-03-04T10:39:14Z</time></trkpt><trkpt lat="36.838260088" lon="-4.360571215"><ele>759.100000</ele><time>2012-03-04T10:39:25Z</time></trkpt><trkpt lat="36.838291520" lon="-4.360757461"><ele>754.770000</ele><time>2012-03-04T10:39:40Z</time></trkpt><trkpt lat="36.838208539" lon="-4.361056192"><ele>751.890000</ele><time>2012-03-04T10:39:55Z</time></trkpt><trkpt lat="36.838212479" lon="-4.361279402"><ele>750.450000</ele><time>2012-03-04T10:40:09Z</time></trkpt><trkpt lat="36.838218682" lon="-4.361309409"><ele>750.450000</ele><time>2012-03-04T10:40:11Z</time></trkpt><trkpt lat="36.838229997" lon="-4.361363137"><ele>750.930000</ele><time>2012-03-04T10:40:15Z</time></trkpt><trkpt lat="36.838253215" lon="-4.361377470"><ele>751.410000</ele><time>2012-03-04T10:40:17Z</time></trkpt><trkpt lat="36.838317420" lon="-4.361487944"><ele>753.330000</ele><time>2012-03-04T10:40:25Z</time></trkpt><trkpt lat="36.838360084" lon="-4.361509234"><ele>756.210000</ele><time>2012-03-04T10:40:28Z</time></trkpt><trkpt lat="36.838437785" lon="-4.361660611"><ele>759.100000</ele><time>2012-03-04T10:40:42Z</time></trkpt><trkpt lat="36.838525962" lon="-4.361798912"><ele>758.140000</ele><time>2012-03-04T10:41:03Z</time></trkpt><trkpt lat="36.838534260" lon="-4.361812156"><ele>757.660000</ele><time>2012-03-04T10:41:33Z</time></trkpt><trkpt lat="36.838526381" lon="-4.361826154"><ele>759.100000</ele><time>2012-03-04T10:42:00Z</time></trkpt><trkpt lat="36.838532081" lon="-4.361865800"><ele>763.420000</ele><time>2012-03-04T10:42:11Z</time></trkpt><trkpt lat="36.838553958" lon="-4.361909553"><ele>764.390000</ele><time>2012-03-04T10:42:24Z</time></trkpt><trkpt lat="36.838556808" lon="-4.361923216"><ele>763.900000</ele><time>2012-03-04T10:42:26Z</time></trkpt><trkpt lat="36.838651355" lon="-4.362066379"><ele>762.940000</ele><time>2012-03-04T10:42:39Z</time></trkpt><trkpt lat="36.838781945" lon="-4.362285482"><ele>764.870000</ele><time>2012-03-04T10:42:54Z</time></trkpt><trkpt lat="36.838808516" lon="-4.362288164"><ele>766.310000</ele><time>2012-03-04T10:42:56Z</time></trkpt><trkpt lat="36.838825364" lon="-4.362329738"><ele>765.350000</ele><time>2012-03-04T10:43:00Z</time></trkpt><trkpt lat="36.838831147" lon="-4.362378856"><ele>765.350000</ele><time>2012-03-04T10:43:04Z</time></trkpt><trkpt lat="36.838848582" lon="-4.362398386"><ele>764.870000</ele><time>2012-03-04T10:43:06Z</time></trkpt><trkpt lat="36.838891748" lon="-4.362537945"><ele>762.940000</ele><time>2012-03-04T10:43:17Z</time></trkpt><trkpt lat="36.838992080" lon="-4.362758221"><ele>760.540000</ele><time>2012-03-04T10:43:34Z</time></trkpt><trkpt lat="36.839141529" lon="-4.362926697"><ele>761.020000</ele><time>2012-03-04T10:43:51Z</time></trkpt><trkpt lat="36.839263905" lon="-4.362970116"><ele>761.020000</ele><time>2012-03-04T10:44:01Z</time></trkpt><trkpt lat="36.839344036" lon="-4.362928877"><ele>760.540000</ele><time>2012-03-04T10:44:09Z</time></trkpt><trkpt lat="36.839478398" lon="-4.362775153"><ele>758.620000</ele><time>2012-03-04T10:44:24Z</time></trkpt><trkpt lat="36.839512261" lon="-4.362750594"><ele>758.140000</ele><time>2012-03-04T10:44:27Z</time></trkpt><trkpt lat="36.839723904" lon="-4.362622434"><ele>755.250000</ele><time>2012-03-04T10:44:46Z</time></trkpt><trkpt lat="36.839835886" lon="-4.362565689"><ele>752.850000</ele><time>2012-03-04T10:44:59Z</time></trkpt><trkpt lat="36.839976953" lon="-4.362528808"><ele>753.330000</ele><time>2012-03-04T10:45:09Z</time></trkpt><trkpt lat="36.840016432" lon="-4.362517661"><ele>753.810000</ele><time>2012-03-04T10:45:12Z</time></trkpt><trkpt lat="36.840215083" lon="-4.362470973"><ele>751.890000</ele><time>2012-03-04T10:45:28Z</time></trkpt><trkpt lat="36.840367718" lon="-4.362375084"><ele>753.810000</ele><time>2012-03-04T10:45:41Z</time></trkpt><trkpt lat="36.840480119" lon="-4.362225132"><ele>751.410000</ele><time>2012-03-04T10:45:55Z</time></trkpt><trkpt lat="36.840610877" lon="-4.362075767"><ele>757.180000</ele><time>2012-03-04T10:46:08Z</time></trkpt><trkpt lat="36.840625210" lon="-4.362058081"><ele>757.660000</ele><time>2012-03-04T10:46:10Z</time></trkpt><trkpt lat="36.840697043" lon="-4.361962024"><ele>757.660000</ele><time>2012-03-04T10:46:19Z</time></trkpt><trkpt lat="36.840718333" lon="-4.361904189"><ele>758.140000</ele><time>2012-03-04T10:46:23Z</time></trkpt><trkpt lat="36.840738449" lon="-4.361883234"><ele>758.620000</ele><time>2012-03-04T10:46:25Z</time></trkpt><trkpt lat="36.840790669" lon="-4.361841660"><ele>760.540000</ele><time>2012-03-04T10:46:30Z</time></trkpt><trkpt lat="36.840796955" lon="-4.361816095"><ele>760.540000</ele><time>2012-03-04T10:46:32Z</time></trkpt><trkpt lat="36.840909943" lon="-4.361661617"><ele>761.980000</ele><time>2012-03-04T10:46:44Z</time></trkpt><trkpt lat="36.840969790" lon="-4.361541169"><ele>762.460000</ele><time>2012-03-04T10:46:53Z</time></trkpt><trkpt lat="36.841037097" lon="-4.361290047"><ele>758.620000</ele><time>2012-03-04T10:47:10Z</time></trkpt><trkpt lat="36.841114042" lon="-4.361012103"><ele>753.330000</ele><time>2012-03-04T10:47:29Z</time></trkpt><trkpt lat="36.841205321" lon="-4.360980419"><ele>750.450000</ele><time>2012-03-04T10:47:41Z</time></trkpt><trkpt lat="36.841257541" lon="-4.361179322"><ele>750.450000</ele><time>2012-03-04T10:47:56Z</time></trkpt><trkpt lat="36.841402715" lon="-4.361425079"><ele>749.970000</ele><time>2012-03-04T10:48:12Z</time></trkpt><trkpt lat="36.841493910" lon="-4.361698329"><ele>750.930000</ele><time>2012-03-04T10:48:29Z</time></trkpt><trkpt lat="36.841513272" lon="-4.361755829"><ele>751.410000</ele><time>2012-03-04T10:48:34Z</time></trkpt><trkpt lat="36.841569515" lon="-4.361849120"><ele>752.850000</ele><time>2012-03-04T10:48:43Z</time></trkpt><trkpt lat="36.841585944" lon="-4.361885162"><ele>753.330000</ele><time>2012-03-04T10:48:46Z</time></trkpt><trkpt lat="36.841650065" lon="-4.361910308"><ele>755.250000</ele><time>2012-03-04T10:48:51Z</time></trkpt><trkpt lat="36.841674708" lon="-4.361924976"><ele>756.210000</ele><time>2012-03-04T10:48:53Z</time></trkpt><trkpt lat="36.841759449" lon="-4.362028409"><ele>755.730000</ele><time>2012-03-04T10:49:07Z</time></trkpt><trkpt lat="36.841797167" lon="-4.362152880"><ele>755.250000</ele><time>2012-03-04T10:49:17Z</time></trkpt><trkpt lat="36.841750313" lon="-4.362351364"><ele>754.290000</ele><time>2012-03-04T10:49:33Z</time></trkpt><trkpt lat="36.841631793" lon="-4.362458065"><ele>755.250000</ele><time>2012-03-04T10:49:41Z</time></trkpt><trkpt lat="36.841599187" lon="-4.362504752"><ele>755.250000</ele><time>2012-03-04T10:49:44Z</time></trkpt><trkpt lat="36.841564402" lon="-4.362563929"><ele>755.730000</ele><time>2012-03-04T10:49:48Z</time></trkpt><trkpt lat="36.841554176" lon="-4.362720838"><ele>754.770000</ele><time>2012-03-04T10:50:03Z</time></trkpt><trkpt lat="36.841549147" lon="-4.362806752"><ele>753.810000</ele><time>2012-03-04T10:50:09Z</time></trkpt><trkpt lat="36.841596840" lon="-4.363039434"><ele>753.330000</ele><time>2012-03-04T10:50:24Z</time></trkpt><trkpt lat="36.841706308" lon="-4.363344116"><ele>756.210000</ele><time>2012-03-04T10:50:42Z</time></trkpt><trkpt lat="36.841718378" lon="-4.363476550"><ele>756.690000</ele><time>2012-03-04T10:50:50Z</time></trkpt><trkpt lat="36.841724915" lon="-4.363541761"><ele>758.620000</ele><time>2012-03-04T10:50:55Z</time></trkpt><trkpt lat="36.841737488" lon="-4.363586018"><ele>759.100000</ele><time>2012-03-04T10:50:58Z</time></trkpt><trkpt lat="36.841799347" lon="-4.363753991"><ele>757.660000</ele><time>2012-03-04T10:51:11Z</time></trkpt><trkpt lat="36.841798425" lon="-4.363802187"><ele>757.660000</ele><time>2012-03-04T10:51:15Z</time></trkpt><trkpt lat="36.841799598" lon="-4.363827501"><ele>757.180000</ele><time>2012-03-04T10:51:17Z</time></trkpt><trkpt lat="36.841746876" lon="-4.364042664"><ele>756.690000</ele><time>2012-03-04T10:51:32Z</time></trkpt><trkpt lat="36.841758946" lon="-4.364306191"><ele>754.290000</ele><time>2012-03-04T10:51:50Z</time></trkpt><trkpt lat="36.841800101" lon="-4.364491766"><ele>751.890000</ele><time>2012-03-04T10:52:03Z</time></trkpt><trkpt lat="36.841804292" lon="-4.364586398"><ele>752.370000</ele><time>2012-03-04T10:52:10Z</time></trkpt><trkpt lat="36.841877215" lon="-4.364834335"><ele>749.970000</ele><time>2012-03-04T10:52:28Z</time></trkpt><trkpt lat="36.842050217" lon="-4.365075566"><ele>748.520000</ele><time>2012-03-04T10:52:48Z</time></trkpt><trkpt lat="36.842103778" lon="-4.365187800"><ele>748.520000</ele><time>2012-03-04T10:53:02Z</time></trkpt><trkpt lat="36.842223890" lon="-4.365424421"><ele>746.120000</ele><time>2012-03-04T10:53:19Z</time></trkpt><trkpt lat="36.842332603" lon="-4.365649978"><ele>739.870000</ele><time>2012-03-04T10:53:35Z</time></trkpt><trkpt lat="36.842378285" lon="-4.365735557"><ele>739.390000</ele><time>2012-03-04T10:53:41Z</time></trkpt><trkpt lat="36.842460176" lon="-4.365873858"><ele>742.760000</ele><time>2012-03-04T10:53:50Z</time></trkpt><trkpt lat="36.842668634" lon="-4.365933454"><ele>746.600000</ele><time>2012-03-04T10:54:07Z</time></trkpt><trkpt lat="36.842748178" lon="-4.365867656"><ele>748.040000</ele><time>2012-03-04T10:54:17Z</time></trkpt><trkpt lat="36.842808360" lon="-4.365805630"><ele>748.520000</ele><time>2012-03-04T10:54:24Z</time></trkpt><trkpt lat="36.842938196" lon="-4.365620893"><ele>749.970000</ele><time>2012-03-04T10:54:42Z</time></trkpt><trkpt lat="36.843065601" lon="-4.365425510"><ele>748.040000</ele><time>2012-03-04T10:54:58Z</time></trkpt><trkpt lat="36.843129387" lon="-4.365376728"><ele>747.560000</ele><time>2012-03-04T10:55:10Z</time></trkpt><trkpt lat="36.843308006" lon="-4.365241025"><ele>748.520000</ele><time>2012-03-04T10:55:26Z</time></trkpt><trkpt lat="36.843324015" lon="-4.365225351"><ele>748.520000</ele><time>2012-03-04T10:55:28Z</time></trkpt><trkpt lat="36.843450079" lon="-4.365175730"><ele>749.490000</ele><time>2012-03-04T10:55:38Z</time></trkpt><trkpt lat="36.843551248" lon="-4.365161900"><ele>749.490000</ele><time>2012-03-04T10:55:48Z</time></trkpt><trkpt lat="36.843623333" lon="-4.365194337"><ele>749.490000</ele><time>2012-03-04T10:55:54Z</time></trkpt><trkpt lat="36.843726095" lon="-4.365353342"><ele>750.450000</ele><time>2012-03-04T10:56:08Z</time></trkpt><trkpt lat="36.843754258" lon="-4.365390977"><ele>750.450000</ele><time>2012-03-04T10:56:11Z</time></trkpt><trkpt lat="36.843785020" lon="-4.365427271"><ele>750.450000</ele><time>2012-03-04T10:56:15Z</time></trkpt><trkpt lat="36.843826175" lon="-4.365500696"><ele>751.410000</ele><time>2012-03-04T10:56:21Z</time></trkpt><trkpt lat="36.843849560" lon="-4.365533637"><ele>751.890000</ele><time>2012-03-04T10:56:24Z</time></trkpt><trkpt lat="36.843866576" lon="-4.365568506"><ele>751.890000</ele><time>2012-03-04T10:56:27Z</time></trkpt><trkpt lat="36.843921142" lon="-4.365644781"><ele>751.890000</ele><time>2012-03-04T10:56:41Z</time></trkpt><trkpt lat="36.843940252" lon="-4.365663137"><ele>751.890000</ele><time>2012-03-04T10:56:43Z</time></trkpt><trkpt lat="36.844115099" lon="-4.365747627"><ele>752.370000</ele><time>2012-03-04T10:56:58Z</time></trkpt><trkpt lat="36.844195481" lon="-4.365729773"><ele>752.850000</ele><time>2012-03-04T10:57:09Z</time></trkpt><trkpt lat="36.844238732" lon="-4.365684595"><ele>753.330000</ele><time>2012-03-04T10:57:17Z</time></trkpt><trkpt lat="36.844384912" lon="-4.365511844"><ele>753.810000</ele><time>2012-03-04T10:57:31Z</time></trkpt><trkpt lat="36.844441406" lon="-4.365442777"><ele>754.290000</ele><time>2012-03-04T10:57:37Z</time></trkpt><trkpt lat="36.844553892" lon="-4.365312941"><ele>755.250000</ele><time>2012-03-04T10:57:53Z</time></trkpt><trkpt lat="36.844731756" lon="-4.365218896"><ele>755.730000</ele><time>2012-03-04T10:58:10Z</time></trkpt><trkpt lat="36.844855975" lon="-4.365098784"><ele>756.210000</ele><time>2012-03-04T10:58:23Z</time></trkpt><trkpt lat="36.844988912" lon="-4.364956208"><ele>756.690000</ele><time>2012-03-04T10:58:37Z</time></trkpt><trkpt lat="36.844998132" lon="-4.364948496"><ele>756.690000</ele><time>2012-03-04T10:58:38Z</time></trkpt><trkpt lat="36.845164597" lon="-4.364770213"><ele>756.690000</ele><time>2012-03-04T10:58:56Z</time></trkpt><trkpt lat="36.845211536" lon="-4.364772644"><ele>757.180000</ele><time>2012-03-04T10:58:59Z</time></trkpt><trkpt lat="36.845226120" lon="-4.364790916"><ele>758.620000</ele><time>2012-03-04T10:59:02Z</time></trkpt><trkpt lat="36.845311280" lon="-4.364954364"><ele>760.060000</ele><time>2012-03-04T10:59:17Z</time></trkpt><trkpt lat="36.845330475" lon="-4.365010271"><ele>760.060000</ele><time>2012-03-04T10:59:22Z</time></trkpt><trkpt lat="36.845351765" lon="-4.365038434"><ele>760.060000</ele><time>2012-03-04T10:59:25Z</time></trkpt><trkpt lat="36.845374061" lon="-4.365085708"><ele>760.540000</ele><time>2012-03-04T10:59:29Z</time></trkpt><trkpt lat="36.845423346" lon="-4.365133150"><ele>760.540000</ele><time>2012-03-04T10:59:34Z</time></trkpt><trkpt lat="36.845551254" lon="-4.365229290"><ele>760.060000</ele><time>2012-03-04T10:59:49Z</time></trkpt><trkpt lat="36.845585704" lon="-4.365326017"><ele>760.540000</ele><time>2012-03-04T10:59:56Z</time></trkpt><trkpt lat="36.845543711" lon="-4.365559621"><ele>767.750000</ele><time>2012-03-04T11:00:11Z</time></trkpt><trkpt lat="36.845451593" lon="-4.365702448"><ele>767.750000</ele><time>2012-03-04T11:00:24Z</time></trkpt><trkpt lat="36.845451342" lon="-4.365866482"><ele>766.790000</ele><time>2012-03-04T11:00:37Z</time></trkpt><trkpt lat="36.845470369" lon="-4.365898250"><ele>766.790000</ele><time>2012-03-04T11:00:40Z</time></trkpt><trkpt lat="36.845485289" lon="-4.365917277"><ele>766.790000</ele><time>2012-03-04T11:00:42Z</time></trkpt><trkpt lat="36.845585117" lon="-4.365987266"><ele>767.270000</ele><time>2012-03-04T11:00:55Z</time></trkpt><trkpt lat="36.845781338" lon="-4.366013585"><ele>766.310000</ele><time>2012-03-04T11:01:15Z</time></trkpt><trkpt lat="36.845956016" lon="-4.366017943"><ele>767.270000</ele><time>2012-03-04T11:01:29Z</time></trkpt><trkpt lat="36.846003039" lon="-4.366036551"><ele>767.270000</ele><time>2012-03-04T11:01:34Z</time></trkpt><trkpt lat="36.846022988" lon="-4.366184659"><ele>767.750000</ele><time>2012-03-04T11:01:47Z</time></trkpt><trkpt lat="36.846035477" lon="-4.366269819"><ele>769.190000</ele><time>2012-03-04T11:01:52Z</time></trkpt><trkpt lat="36.846048301" lon="-4.366467549"><ele>768.710000</ele><time>2012-03-04T11:02:05Z</time></trkpt><trkpt lat="36.846048888" lon="-4.366484061"><ele>769.190000</ele><time>2012-03-04T11:02:06Z</time></trkpt><trkpt lat="36.846131617" lon="-4.366607945"><ele>767.750000</ele><time>2012-03-04T11:02:18Z</time></trkpt><trkpt lat="36.846158858" lon="-4.366649520"><ele>767.750000</ele><time>2012-03-04T11:02:21Z</time></trkpt><trkpt lat="36.846199343" lon="-4.366755551"><ele>768.230000</ele><time>2012-03-04T11:02:28Z</time></trkpt><trkpt lat="36.846203869" lon="-4.366856553"><ele>766.790000</ele><time>2012-03-04T11:02:37Z</time></trkpt><trkpt lat="36.846200768" lon="-4.366896786"><ele>766.310000</ele><time>2012-03-04T11:02:40Z</time></trkpt><trkpt lat="36.846203283" lon="-4.366942132"><ele>766.310000</ele><time>2012-03-04T11:02:42Z</time></trkpt><trkpt lat="36.846161457" lon="-4.367168611"><ele>768.230000</ele><time>2012-03-04T11:02:55Z</time></trkpt><trkpt lat="36.846145112" lon="-4.367361059"><ele>770.150000</ele><time>2012-03-04T11:03:07Z</time></trkpt><trkpt lat="36.846210156" lon="-4.367515370"><ele>768.710000</ele><time>2012-03-04T11:03:19Z</time></trkpt><trkpt lat="36.846320713" lon="-4.367493494"><ele>768.710000</ele><time>2012-03-04T11:03:28Z</time></trkpt><trkpt lat="36.846508468" lon="-4.367387798"><ele>770.630000</ele><time>2012-03-04T11:03:44Z</time></trkpt><trkpt lat="36.846519448" lon="-4.367380254"><ele>770.630000</ele><time>2012-03-04T11:03:45Z</time></trkpt><trkpt lat="36.846565548" lon="-4.367364077"><ele>770.630000</ele><time>2012-03-04T11:03:49Z</time></trkpt><trkpt lat="36.846613241" lon="-4.367334656"><ele>770.150000</ele><time>2012-03-04T11:03:55Z</time></trkpt><trkpt lat="36.846756237" lon="-4.367320575"><ele>770.150000</ele><time>2012-03-04T11:04:08Z</time></trkpt><trkpt lat="36.846825220" lon="-4.367313953"><ele>770.150000</ele><time>2012-03-04T11:04:24Z</time></trkpt><trkpt lat="36.846883893" lon="-4.367311103"><ele>770.150000</ele><time>2012-03-04T11:04:50Z</time></trkpt><trkpt lat="36.847091764" lon="-4.367268775"><ele>771.110000</ele><time>2012-03-04T11:05:05Z</time></trkpt><trkpt lat="36.847145325" lon="-4.367243629"><ele>771.110000</ele><time>2012-03-04T11:05:09Z</time></trkpt><trkpt lat="36.847212631" lon="-4.367167521"><ele>771.110000</ele><time>2012-03-04T11:05:16Z</time></trkpt><trkpt lat="36.847209530" lon="-4.367126534"><ele>771.110000</ele><time>2012-03-04T11:05:19Z</time></trkpt><trkpt lat="36.847246913" lon="-4.367049001"><ele>771.110000</ele><time>2012-03-04T11:05:24Z</time></trkpt><trkpt lat="36.847361494" lon="-4.366834760"><ele>772.080000</ele><time>2012-03-04T11:05:40Z</time></trkpt><trkpt lat="36.847401392" lon="-4.366695201"><ele>773.040000</ele><time>2012-03-04T11:05:49Z</time></trkpt><trkpt lat="36.847475739" lon="-4.366512224"><ele>773.040000</ele><time>2012-03-04T11:06:01Z</time></trkpt><trkpt lat="36.847482277" lon="-4.366498059"><ele>773.040000</ele><time>2012-03-04T11:06:02Z</time></trkpt><trkpt lat="36.847554529" lon="-4.366359087"><ele>773.520000</ele><time>2012-03-04T11:06:13Z</time></trkpt><trkpt lat="36.847587805" lon="-4.366297061"><ele>773.520000</ele><time>2012-03-04T11:06:18Z</time></trkpt><trkpt lat="36.847694339" lon="-4.366197987"><ele>774.480000</ele><time>2012-03-04T11:06:30Z</time></trkpt><trkpt lat="36.847774638" lon="-4.366088267"><ele>774.960000</ele><time>2012-03-04T11:06:41Z</time></trkpt><trkpt lat="36.847805819" lon="-4.366040910"><ele>774.960000</ele><time>2012-03-04T11:06:46Z</time></trkpt><trkpt lat="36.847860972" lon="-4.365966730"><ele>775.920000</ele><time>2012-03-04T11:06:54Z</time></trkpt><trkpt lat="36.847893242" lon="-4.365931191"><ele>776.400000</ele><time>2012-03-04T11:06:58Z</time></trkpt><trkpt lat="36.847929452" lon="-4.365917863"><ele>776.400000</ele><time>2012-03-04T11:07:02Z</time></trkpt><trkpt lat="36.848053504" lon="-4.365966814"><ele>777.360000</ele><time>2012-03-04T11:07:16Z</time></trkpt><trkpt lat="36.848104633" lon="-4.366003443"><ele>777.840000</ele><time>2012-03-04T11:07:22Z</time></trkpt><trkpt lat="36.848220555" lon="-4.366092291"><ele>777.840000</ele><time>2012-03-04T11:07:35Z</time></trkpt><trkpt lat="36.848305715" lon="-4.366213996"><ele>778.320000</ele><time>2012-03-04T11:07:48Z</time></trkpt><trkpt lat="36.848310493" lon="-4.366222043"><ele>778.320000</ele><time>2012-03-04T11:07:49Z</time></trkpt><trkpt lat="36.848328011" lon="-4.366232939"><ele>778.810000</ele><time>2012-03-04T11:07:51Z</time></trkpt><trkpt lat="36.848428343" lon="-4.366262443"><ele>781.690000</ele><time>2012-03-04T11:08:02Z</time></trkpt><trkpt lat="36.848455416" lon="-4.366249284"><ele>782.170000</ele><time>2012-03-04T11:08:05Z</time></trkpt><trkpt lat="36.848530434" lon="-4.366196226"><ele>782.170000</ele><time>2012-03-04T11:08:15Z</time></trkpt><trkpt lat="36.848615008" lon="-4.366129926"><ele>782.650000</ele><time>2012-03-04T11:08:25Z</time></trkpt><trkpt lat="36.848747442" lon="-4.366123723"><ele>784.570000</ele><time>2012-03-04T11:08:39Z</time></trkpt><trkpt lat="36.848790776" lon="-4.366134200"><ele>784.570000</ele><time>2012-03-04T11:08:54Z</time></trkpt><trkpt lat="36.848945003" lon="-4.366152305"><ele>783.610000</ele><time>2012-03-04T11:09:09Z</time></trkpt><trkpt lat="36.849113479" lon="-4.366170410"><ele>785.530000</ele><time>2012-03-04T11:09:24Z</time></trkpt><trkpt lat="36.849283632" lon="-4.366158005"><ele>786.980000</ele><time>2012-03-04T11:09:40Z</time></trkpt><trkpt lat="36.849394441" lon="-4.366036970"><ele>786.500000</ele><time>2012-03-04T11:09:55Z</time></trkpt><trkpt lat="36.849440038" lon="-4.365994139"><ele>786.500000</ele><time>2012-03-04T11:10:09Z</time></trkpt><trkpt lat="36.849581525" lon="-4.365906045"><ele>791.300000</ele><time>2012-03-04T11:10:21Z</time></trkpt><trkpt lat="36.849707253" lon="-4.365837062"><ele>794.670000</ele><time>2012-03-04T11:10:36Z</time></trkpt><trkpt lat="36.849716557" lon="-4.365831446"><ele>795.150000</ele><time>2012-03-04T11:10:37Z</time></trkpt><trkpt lat="36.849865168" lon="-4.365763385"><ele>796.590000</ele><time>2012-03-04T11:10:51Z</time></trkpt><trkpt lat="36.849996178" lon="-4.365729438"><ele>798.030000</ele><time>2012-03-04T11:11:04Z</time></trkpt><trkpt lat="36.850117296" lon="-4.365701191"><ele>800.920000</ele><time>2012-03-04T11:11:18Z</time></trkpt><trkpt lat="36.850227686" lon="-4.365688199"><ele>801.880000</ele><time>2012-03-04T11:11:30Z</time></trkpt><trkpt lat="36.850359701" lon="-4.365678141"><ele>803.800000</ele><time>2012-03-04T11:11:44Z</time></trkpt><trkpt lat="36.850486519" lon="-4.365667915"><ele>805.720000</ele><time>2012-03-04T11:11:59Z</time></trkpt><trkpt lat="36.850598669" lon="-4.365676967"><ele>806.200000</ele><time>2012-03-04T11:12:12Z</time></trkpt><trkpt lat="36.850710148" lon="-4.365708735"><ele>807.160000</ele><time>2012-03-04T11:12:23Z</time></trkpt><trkpt lat="36.850725152" lon="-4.365719296"><ele>807.640000</ele><time>2012-03-04T11:12:25Z</time></trkpt><trkpt lat="36.850821041" lon="-4.365782496"><ele>807.160000</ele><time>2012-03-04T11:12:38Z</time></trkpt><trkpt lat="36.850841492" lon="-4.365800014"><ele>807.160000</ele><time>2012-03-04T11:12:46Z</time></trkpt><trkpt lat="36.850876194" lon="-4.365822393"><ele>807.160000</ele><time>2012-03-04T11:12:49Z</time></trkpt><trkpt lat="36.850975519" lon="-4.365938734"><ele>805.240000</ele><time>2012-03-04T11:13:03Z</time></trkpt><trkpt lat="36.851073839" lon="-4.366032193"><ele>803.320000</ele><time>2012-03-04T11:13:18Z</time></trkpt><trkpt lat="36.851137709" lon="-4.366155574"><ele>800.440000</ele><time>2012-03-04T11:13:34Z</time></trkpt><trkpt lat="36.851208201" lon="-4.366406947"><ele>798.030000</ele><time>2012-03-04T11:13:52Z</time></trkpt><trkpt lat="36.851222282" lon="-4.366593612"><ele>794.190000</ele><time>2012-03-04T11:14:07Z</time></trkpt><trkpt lat="36.851265701" lon="-4.366710121"><ele>791.300000</ele><time>2012-03-04T11:14:20Z</time></trkpt><trkpt lat="36.851260923" lon="-4.366738955"><ele>793.710000</ele><time>2012-03-04T11:14:45Z</time></trkpt><trkpt lat="36.851302246" lon="-4.366885554"><ele>803.320000</ele><time>2012-03-04T11:15:08Z</time></trkpt><trkpt lat="36.851349855" lon="-4.366953615"><ele>806.200000</ele><time>2012-03-04T11:15:15Z</time></trkpt><trkpt lat="36.851465609" lon="-4.367136089"><ele>810.050000</ele><time>2012-03-04T11:15:29Z</time></trkpt><trkpt lat="36.851560157" lon="-4.367346223"><ele>814.370000</ele><time>2012-03-04T11:15:45Z</time></trkpt><trkpt lat="36.851634421" lon="-4.367483016"><ele>813.890000</ele><time>2012-03-04T11:16:00Z</time></trkpt><trkpt lat="36.851714216" lon="-4.367647804"><ele>814.370000</ele><time>2012-03-04T11:16:17Z</time></trkpt><trkpt lat="36.851798119" lon="-4.367764397"><ele>815.820000</ele><time>2012-03-04T11:16:31Z</time></trkpt><trkpt lat="36.851885039" lon="-4.367902866"><ele>815.340000</ele><time>2012-03-04T11:16:47Z</time></trkpt><trkpt lat="36.851947568" lon="-4.367995318"><ele>823.030000</ele><time>2012-03-04T11:16:58Z</time></trkpt><trkpt lat="36.852037422" lon="-4.368171506"><ele>823.510000</ele><time>2012-03-04T11:17:15Z</time></trkpt><trkpt lat="36.852057036" lon="-4.368205369"><ele>823.030000</ele><time>2012-03-04T11:17:19Z</time></trkpt><trkpt lat="36.852144459" lon="-4.368261946"><ele>822.060000</ele><time>2012-03-04T11:17:33Z</time></trkpt><trkpt lat="36.852173964" lon="-4.368287679"><ele>821.100000</ele><time>2012-03-04T11:17:45Z</time></trkpt><trkpt lat="36.852259291" lon="-4.368449953"><ele>819.660000</ele><time>2012-03-04T11:18:00Z</time></trkpt><trkpt lat="36.852362640" lon="-4.368613148"><ele>818.700000</ele><time>2012-03-04T11:18:15Z</time></trkpt><trkpt lat="36.852488201" lon="-4.368747342"><ele>818.220000</ele><time>2012-03-04T11:18:31Z</time></trkpt><trkpt lat="36.852613594" lon="-4.368846500"><ele>818.700000</ele><time>2012-03-04T11:18:47Z</time></trkpt><trkpt lat="36.852748375" lon="-4.368899139"><ele>821.100000</ele><time>2012-03-04T11:19:02Z</time></trkpt><trkpt lat="36.852906290" lon="-4.368913304"><ele>822.550000</ele><time>2012-03-04T11:19:17Z</time></trkpt><trkpt lat="36.852944177" lon="-4.368924368"><ele>822.550000</ele><time>2012-03-04T11:19:22Z</time></trkpt><trkpt lat="36.853116592" lon="-4.368995279"><ele>829.270000</ele><time>2012-03-04T11:19:37Z</time></trkpt><trkpt lat="36.853196556" lon="-4.369069543"><ele>831.200000</ele><time>2012-03-04T11:19:53Z</time></trkpt><trkpt lat="36.853282135" lon="-4.369214382"><ele>831.680000</ele><time>2012-03-04T11:20:08Z</time></trkpt><trkpt lat="36.853349526" lon="-4.369399706"><ele>831.200000</ele><time>2012-03-04T11:20:25Z</time></trkpt><trkpt lat="36.853398560" lon="-4.369523674"><ele>830.720000</ele><time>2012-03-04T11:20:42Z</time></trkpt><trkpt lat="36.853483133" lon="-4.369680081"><ele>829.270000</ele><time>2012-03-04T11:20:56Z</time></trkpt><trkpt lat="36.853565946" lon="-4.369842606"><ele>828.310000</ele><time>2012-03-04T11:21:14Z</time></trkpt><trkpt lat="36.853631241" lon="-4.369914690"><ele>831.200000</ele><time>2012-03-04T11:21:37Z</time></trkpt><trkpt lat="36.853637612" lon="-4.369919384"><ele>831.680000</ele><time>2012-03-04T11:21:50Z</time></trkpt><trkpt lat="36.853637612" lon="-4.369919384"><ele>831.680000</ele><time>2012-03-04T11:22:09Z</time></trkpt><trkpt lat="36.853611963" lon="-4.369909661"><ele>831.680000</ele><time>2012-03-04T11:22:26Z</time></trkpt><trkpt lat="36.853611963" lon="-4.369909661"><ele>831.680000</ele><time>2012-03-04T11:22:46Z</time></trkpt><trkpt lat="36.853611795" lon="-4.369910080"><ele>831.680000</ele><time>2012-03-04T11:23:06Z</time></trkpt><trkpt lat="36.853611795" lon="-4.369910080"><ele>831.680000</ele><time>2012-03-04T11:23:31Z</time></trkpt><trkpt lat="36.853612382" lon="-4.369909158"><ele>831.680000</ele><time>2012-03-04T11:23:59Z</time></trkpt><trkpt lat="36.853612801" lon="-4.369907146"><ele>831.680000</ele><time>2012-03-04T11:24:25Z</time></trkpt><trkpt lat="36.853627134" lon="-4.369908739"><ele>831.680000</ele><time>2012-03-04T11:24:56Z</time></trkpt><trkpt lat="36.853627134" lon="-4.369908739"><ele>831.680000</ele><time>2012-03-04T11:25:20Z</time></trkpt><trkpt lat="36.853628978" lon="-4.369909242"><ele>831.680000</ele><time>2012-03-04T11:25:46Z</time></trkpt><trkpt lat="36.853628978" lon="-4.369909242"><ele>831.680000</ele><time>2012-03-04T11:26:08Z</time></trkpt><trkpt lat="36.853630235" lon="-4.369911505"><ele>832.160000</ele><time>2012-03-04T11:26:37Z</time></trkpt><trkpt lat="36.853630235" lon="-4.369911505"><ele>832.160000</ele><time>2012-03-04T11:27:00Z</time></trkpt><trkpt lat="36.853672145" lon="-4.369984679"><ele>832.160000</ele><time>2012-03-04T11:27:19Z</time></trkpt><trkpt lat="36.853783038" lon="-4.370195987"><ele>834.080000</ele><time>2012-03-04T11:27:36Z</time></trkpt><trkpt lat="36.853849338" lon="-4.370389357"><ele>834.560000</ele><time>2012-03-04T11:27:52Z</time></trkpt><trkpt lat="36.853903737" lon="-4.370539645"><ele>835.040000</ele><time>2012-03-04T11:28:06Z</time></trkpt><trkpt lat="36.853964841" lon="-4.370690770"><ele>836.960000</ele><time>2012-03-04T11:28:17Z</time></trkpt><trkpt lat="36.853991915" lon="-4.370746510"><ele>836.960000</ele><time>2012-03-04T11:28:23Z</time></trkpt><trkpt lat="36.854051007" lon="-4.370899480"><ele>837.930000</ele><time>2012-03-04T11:28:36Z</time></trkpt><trkpt lat="36.854087384" lon="-4.371001320"><ele>836.480000</ele><time>2012-03-04T11:28:43Z</time></trkpt><trkpt lat="36.854131222" lon="-4.371220339"><ele>836.480000</ele><time>2012-03-04T11:28:57Z</time></trkpt><trkpt lat="36.854127450" lon="-4.371473556"><ele>835.520000</ele><time>2012-03-04T11:29:12Z</time></trkpt><trkpt lat="36.854119822" lon="-4.371587886"><ele>836.960000</ele><time>2012-03-04T11:29:21Z</time></trkpt><trkpt lat="36.854097946" lon="-4.371703388"><ele>837.930000</ele><time>2012-03-04T11:29:30Z</time></trkpt><trkpt lat="36.854058635" lon="-4.371845294"><ele>838.410000</ele><time>2012-03-04T11:29:41Z</time></trkpt><trkpt lat="36.853995519" lon="-4.372119466"><ele>837.930000</ele><time>2012-03-04T11:29:58Z</time></trkpt><trkpt lat="36.853899378" lon="-4.372376287"><ele>836.480000</ele><time>2012-03-04T11:30:18Z</time></trkpt><trkpt lat="36.853898540" lon="-4.372382071"><ele>836.480000</ele><time>2012-03-04T11:30:42Z</time></trkpt><trkpt lat="36.853898121" lon="-4.372380897"><ele>836.960000</ele><time>2012-03-04T11:31:11Z</time></trkpt><trkpt lat="36.853897451" lon="-4.372381400"><ele>836.480000</ele><time>2012-03-04T11:31:44Z</time></trkpt><trkpt lat="36.853898373" lon="-4.372384585"><ele>836.960000</ele><time>2012-03-04T11:32:07Z</time></trkpt><trkpt lat="36.853879010" lon="-4.372481564"><ele>837.450000</ele><time>2012-03-04T11:32:25Z</time></trkpt><trkpt lat="36.853845650" lon="-4.372854224"><ele>836.000000</ele><time>2012-03-04T11:32:49Z</time></trkpt><trkpt lat="36.853848081" lon="-4.372882471"><ele>836.000000</ele><time>2012-03-04T11:32:51Z</time></trkpt><trkpt lat="36.853868868" lon="-4.373038458"><ele>835.040000</ele><time>2012-03-04T11:33:09Z</time></trkpt><trkpt lat="36.853929386" lon="-4.373295279"><ele>830.240000</ele><time>2012-03-04T11:33:28Z</time></trkpt><trkpt lat="36.853968864" lon="-4.373590574"><ele>827.350000</ele><time>2012-03-04T11:33:45Z</time></trkpt><trkpt lat="36.854027789" lon="-4.373860220"><ele>824.950000</ele><time>2012-03-04T11:34:03Z</time></trkpt><trkpt lat="36.854095431" lon="-4.374142773"><ele>822.550000</ele><time>2012-03-04T11:34:21Z</time></trkpt><trkpt lat="36.854126109" lon="-4.374469165"><ele>818.700000</ele><time>2012-03-04T11:34:40Z</time></trkpt><trkpt lat="36.854130719" lon="-4.374791617"><ele>816.780000</ele><time>2012-03-04T11:34:58Z</time></trkpt><trkpt lat="36.854153182" lon="-4.375130162"><ele>813.410000</ele><time>2012-03-04T11:35:18Z</time></trkpt><trkpt lat="36.854189392" lon="-4.375400478"><ele>810.050000</ele><time>2012-03-04T11:35:36Z</time></trkpt><trkpt lat="36.854149830" lon="-4.375645062"><ele>805.240000</ele><time>2012-03-04T11:35:53Z</time></trkpt><trkpt lat="36.854139855" lon="-4.375722762"><ele>803.320000</ele><time>2012-03-04T11:36:10Z</time></trkpt><trkpt lat="36.854007421" lon="-4.376152922"><ele>797.070000</ele><time>2012-03-04T11:36:28Z</time></trkpt><trkpt lat="36.853926452" lon="-4.376363559"><ele>800.440000</ele><time>2012-03-04T11:36:39Z</time></trkpt><trkpt lat="36.853839532" lon="-4.376636725"><ele>803.800000</ele><time>2012-03-04T11:36:56Z</time></trkpt><trkpt lat="36.853816314" lon="-4.376815762"><ele>802.360000</ele><time>2012-03-04T11:37:09Z</time></trkpt><trkpt lat="36.853725538" lon="-4.377124049"><ele>797.550000</ele><time>2012-03-04T11:37:30Z</time></trkpt><trkpt lat="36.853611795" lon="-4.377400903"><ele>794.670000</ele><time>2012-03-04T11:37:50Z</time></trkpt><trkpt lat="36.853611795" lon="-4.377400903"><ele>794.670000</ele><time>2012-03-04T11:37:53Z</time></trkpt><trkpt lat="36.853615902" lon="-4.377520178"><ele>795.630000</ele><time>2012-03-04T11:37:58Z</time></trkpt><trkpt lat="36.853685556" lon="-4.377684882"><ele>795.630000</ele><time>2012-03-04T11:38:09Z</time></trkpt><trkpt lat="36.853720592" lon="-4.377724528"><ele>796.590000</ele><time>2012-03-04T11:38:13Z</time></trkpt><trkpt lat="36.853783792" lon="-4.377779514"><ele>796.110000</ele><time>2012-03-04T11:38:20Z</time></trkpt><trkpt lat="36.853869623" lon="-4.378082939"><ele>794.670000</ele><time>2012-03-04T11:38:38Z</time></trkpt><trkpt lat="36.853797287" lon="-4.378382005"><ele>790.820000</ele><time>2012-03-04T11:38:58Z</time></trkpt><trkpt lat="36.853650352" lon="-4.378631869"><ele>786.500000</ele><time>2012-03-04T11:39:17Z</time></trkpt><trkpt lat="36.853621351" lon="-4.378694315"><ele>785.050000</ele><time>2012-03-04T11:39:33Z</time></trkpt><trkpt lat="36.853543986" lon="-4.378812080"><ele>784.090000</ele><time>2012-03-04T11:39:41Z</time></trkpt><trkpt lat="36.853313567" lon="-4.378833370"><ele>781.690000</ele><time>2012-03-04T11:39:59Z</time></trkpt><trkpt lat="36.853272412" lon="-4.378797747"><ele>782.170000</ele><time>2012-03-04T13:24:09Z</time></trkpt><trkpt lat="36.853062529" lon="-4.378755335"><ele>781.690000</ele><time>2012-03-04T13:24:25Z</time></trkpt><trkpt lat="36.853044340" lon="-4.378744019"><ele>782.170000</ele><time>2012-03-04T13:24:27Z</time></trkpt><trkpt lat="36.852989523" lon="-4.378730189"><ele>783.130000</ele><time>2012-03-04T13:24:32Z</time></trkpt><trkpt lat="36.852960521" lon="-4.378730189"><ele>783.130000</ele><time>2012-03-04T13:24:36Z</time></trkpt><trkpt lat="36.852891035" lon="-4.378718706"><ele>782.650000</ele><time>2012-03-04T13:24:42Z</time></trkpt><trkpt lat="36.852802942" lon="-4.378734296"><ele>781.210000</ele><time>2012-03-04T13:24:50Z</time></trkpt><trkpt lat="36.852778886" lon="-4.378762711"><ele>780.730000</ele><time>2012-03-04T13:24:53Z</time></trkpt><trkpt lat="36.852777796" lon="-4.379056329"><ele>777.840000</ele><time>2012-03-04T13:25:09Z</time></trkpt><trkpt lat="36.852896316" lon="-4.379277863"><ele>774.480000</ele><time>2012-03-04T13:25:26Z</time></trkpt><trkpt lat="36.853005532" lon="-4.379497720"><ele>774.480000</ele><time>2012-03-04T13:25:42Z</time></trkpt><trkpt lat="36.853126986" lon="-4.379731324"><ele>772.080000</ele><time>2012-03-04T13:25:59Z</time></trkpt><trkpt lat="36.853167387" lon="-4.379929137"><ele>771.110000</ele><time>2012-03-04T13:26:10Z</time></trkpt><trkpt lat="36.853176523" lon="-4.380253516"><ele>768.230000</ele><time>2012-03-04T13:26:29Z</time></trkpt><trkpt lat="36.853106953" lon="-4.380520061"><ele>764.870000</ele><time>2012-03-04T13:26:46Z</time></trkpt><trkpt lat="36.853032690" lon="-4.380789287"><ele>764.390000</ele><time>2012-03-04T13:27:02Z</time></trkpt><trkpt lat="36.853022715" lon="-4.380931947"><ele>761.500000</ele><time>2012-03-04T13:27:13Z</time></trkpt><trkpt lat="36.853032270" lon="-4.381019957"><ele>761.980000</ele><time>2012-03-04T13:27:18Z</time></trkpt><trkpt lat="36.852996564" lon="-4.381114002"><ele>761.500000</ele><time>2012-03-04T13:27:24Z</time></trkpt><trkpt lat="36.852980303" lon="-4.381264541"><ele>760.540000</ele><time>2012-03-04T13:27:33Z</time></trkpt><trkpt lat="36.852914253" lon="-4.381496636"><ele>757.180000</ele><time>2012-03-04T13:27:49Z</time></trkpt><trkpt lat="36.852889862" lon="-4.381555058"><ele>756.690000</ele><time>2012-03-04T13:27:52Z</time></trkpt><trkpt lat="36.852717362" lon="-4.381815149"><ele>753.330000</ele><time>2012-03-04T13:28:11Z</time></trkpt><trkpt lat="36.852709232" lon="-4.381825458"><ele>753.330000</ele><time>2012-03-04T13:28:12Z</time></trkpt><trkpt lat="36.852676543" lon="-4.381883461"><ele>752.850000</ele><time>2012-03-04T13:28:16Z</time></trkpt><trkpt lat="36.852531033" lon="-4.382225443"><ele>749.490000</ele><time>2012-03-04T13:28:36Z</time></trkpt><trkpt lat="36.852459032" lon="-4.382398529"><ele>746.600000</ele><time>2012-03-04T13:28:51Z</time></trkpt><trkpt lat="36.852414776" lon="-4.382450245"><ele>745.640000</ele><time>2012-03-04T13:28:55Z</time></trkpt><trkpt lat="36.852237834" lon="-4.382656021"><ele>741.310000</ele><time>2012-03-04T13:29:15Z</time></trkpt><trkpt lat="36.852108249" lon="-4.382650070"><ele>740.350000</ele><time>2012-03-04T13:29:26Z</time></trkpt><trkpt lat="36.851929044" lon="-4.382495843"><ele>735.070000</ele><time>2012-03-04T13:29:44Z</time></trkpt><trkpt lat="36.851741877" lon="-4.382465333"><ele>736.990000</ele><time>2012-03-04T13:29:58Z</time></trkpt><trkpt lat="36.851731567" lon="-4.382471200"><ele>736.990000</ele><time>2012-03-04T13:29:59Z</time></trkpt><trkpt lat="36.851588488" lon="-4.382514283"><ele>735.550000</ele><time>2012-03-04T13:30:10Z</time></trkpt><trkpt lat="36.851565354" lon="-4.382544039"><ele>735.550000</ele><time>2012-03-04T13:30:12Z</time></trkpt><trkpt lat="36.851485306" lon="-4.382615034"><ele>734.100000</ele><time>2012-03-04T13:30:19Z</time></trkpt><trkpt lat="36.851373911" lon="-4.382756520"><ele>734.100000</ele><time>2012-03-04T13:30:30Z</time></trkpt><trkpt lat="36.851257402" lon="-4.382964810"><ele>731.700000</ele><time>2012-03-04T13:30:45Z</time></trkpt><trkpt lat="36.851221444" lon="-4.383030441"><ele>731.220000</ele><time>2012-03-04T13:30:49Z</time></trkpt><trkpt lat="36.851062942" lon="-4.383256417"><ele>725.930000</ele><time>2012-03-04T13:31:07Z</time></trkpt><trkpt lat="36.850930424" lon="-4.383464456"><ele>721.610000</ele><time>2012-03-04T13:31:20Z</time></trkpt><trkpt lat="36.850777203" lon="-4.383713901"><ele>717.760000</ele><time>2012-03-04T13:31:38Z</time></trkpt><trkpt lat="36.850696318" lon="-4.383790763"><ele>717.280000</ele><time>2012-03-04T13:31:45Z</time></trkpt><trkpt lat="36.850551227" lon="-4.383547772"><ele>714.400000</ele><time>2012-03-04T13:32:01Z</time></trkpt><trkpt lat="36.850532284" lon="-4.383273935"><ele>711.510000</ele><time>2012-03-04T13:32:17Z</time></trkpt><trkpt lat="36.850493392" lon="-4.383108141"><ele>711.030000</ele><time>2012-03-04T13:32:26Z</time></trkpt><trkpt lat="36.850457434" lon="-4.383038906"><ele>711.030000</ele><time>2012-03-04T13:32:31Z</time></trkpt><trkpt lat="36.850406136" lon="-4.382981407"><ele>710.550000</ele><time>2012-03-04T13:32:37Z</time></trkpt><trkpt lat="36.850231625" lon="-4.382878142"><ele>707.190000</ele><time>2012-03-04T13:32:53Z</time></trkpt><trkpt lat="36.850181166" lon="-4.382847967"><ele>706.710000</ele><time>2012-03-04T13:32:57Z</time></trkpt><trkpt lat="36.849948149" lon="-4.382763645"><ele>703.340000</ele><time>2012-03-04T13:33:15Z</time></trkpt><trkpt lat="36.849708678" lon="-4.382673875"><ele>700.940000</ele><time>2012-03-04T13:33:33Z</time></trkpt><trkpt lat="36.849464178" lon="-4.382629702"><ele>696.610000</ele><time>2012-03-04T13:33:53Z</time></trkpt><trkpt lat="36.849212302" lon="-4.382622577"><ele>694.210000</ele><time>2012-03-04T13:34:11Z</time></trkpt><trkpt lat="36.849051453" lon="-4.382614950"><ele>692.290000</ele><time>2012-03-04T13:34:25Z</time></trkpt><trkpt lat="36.848918349" lon="-4.382643197"><ele>690.840000</ele><time>2012-03-04T13:34:36Z</time></trkpt><trkpt lat="36.848854478" lon="-4.382677311"><ele>690.360000</ele><time>2012-03-04T13:34:40Z</time></trkpt><trkpt lat="36.848796811" lon="-4.382749060"><ele>689.400000</ele><time>2012-03-04T13:34:46Z</time></trkpt><trkpt lat="36.848727744" lon="-4.382866994"><ele>686.520000</ele><time>2012-03-04T13:34:55Z</time></trkpt><trkpt lat="36.848648367" lon="-4.382999344"><ele>682.190000</ele><time>2012-03-04T13:35:04Z</time></trkpt><trkpt lat="36.848568656" lon="-4.383274438"><ele>681.230000</ele><time>2012-03-04T13:35:21Z</time></trkpt><trkpt lat="36.848488692" lon="-4.383513993"><ele>682.190000</ele><time>2012-03-04T13:35:35Z</time></trkpt><trkpt lat="36.848437479" lon="-4.383678613"><ele>679.310000</ele><time>2012-03-04T13:35:46Z</time></trkpt><trkpt lat="36.848392971" lon="-4.383738963"><ele>678.350000</ele><time>2012-03-04T13:35:51Z</time></trkpt><trkpt lat="36.848265734" lon="-4.383933255"><ele>674.020000</ele><time>2012-03-04T13:36:06Z</time></trkpt><trkpt lat="36.848067669" lon="-4.384155292"><ele>670.180000</ele><time>2012-03-04T13:36:24Z</time></trkpt><trkpt lat="36.848035650" lon="-4.384240871"><ele>672.580000</ele><time>2012-03-04T13:36:29Z</time></trkpt><trkpt lat="36.847993489" lon="-4.384334078"><ele>674.020000</ele><time>2012-03-04T13:36:35Z</time></trkpt><trkpt lat="36.847926769" lon="-4.384454778"><ele>673.060000</ele><time>2012-03-04T13:36:44Z</time></trkpt><trkpt lat="36.847895170" lon="-4.384615626"><ele>673.060000</ele><time>2012-03-04T13:36:53Z</time></trkpt><trkpt lat="36.847827444" lon="-4.384758622"><ele>672.580000</ele><time>2012-03-04T13:37:01Z</time></trkpt><trkpt lat="36.847737590" lon="-4.384958949"><ele>672.580000</ele><time>2012-03-04T13:37:14Z</time></trkpt><trkpt lat="36.847683527" lon="-4.385087695"><ele>672.100000</ele><time>2012-03-04T13:37:22Z</time></trkpt><trkpt lat="36.847522510" lon="-4.385317862"><ele>668.730000</ele><time>2012-03-04T13:37:39Z</time></trkpt><trkpt lat="36.847491330" lon="-4.385365052"><ele>667.290000</ele><time>2012-03-04T13:37:43Z</time></trkpt><trkpt lat="36.847453024" lon="-4.385416014"><ele>666.810000</ele><time>2012-03-04T13:37:47Z</time></trkpt><trkpt lat="36.847429723" lon="-4.385439400"><ele>665.850000</ele><time>2012-03-04T13:37:49Z</time></trkpt><trkpt lat="36.847252613" lon="-4.385408387"><ele>661.520000</ele><time>2012-03-04T13:38:04Z</time></trkpt><trkpt lat="36.847053124" lon="-4.385230858"><ele>652.390000</ele><time>2012-03-04T13:38:23Z</time></trkpt><trkpt lat="36.846916666" lon="-4.384981999"><ele>648.070000</ele><time>2012-03-04T13:38:35Z</time></trkpt><trkpt lat="36.846749280" lon="-4.384731296"><ele>646.620000</ele><time>2012-03-04T13:38:52Z</time></trkpt><trkpt lat="36.846688762" lon="-4.384618811"><ele>642.300000</ele><time>2012-03-04T13:39:04Z</time></trkpt><trkpt lat="36.846677112" lon="-4.384542285"><ele>640.860000</ele><time>2012-03-04T13:39:08Z</time></trkpt><trkpt lat="36.846666299" lon="-4.384377329"><ele>637.970000</ele><time>2012-03-04T13:39:15Z</time></trkpt><trkpt lat="36.846657917" lon="-4.384205248"><ele>634.610000</ele><time>2012-03-04T13:39:25Z</time></trkpt><trkpt lat="36.846635537" lon="-4.384063762"><ele>631.720000</ele><time>2012-03-04T13:39:34Z</time></trkpt><trkpt lat="36.846568063" lon="-4.383931831"><ele>632.200000</ele><time>2012-03-04T13:39:40Z</time></trkpt><trkpt lat="36.846550042" lon="-4.383913307"><ele>631.720000</ele><time>2012-03-04T13:39:42Z</time></trkpt><trkpt lat="36.846409813" lon="-4.383852454"><ele>629.800000</ele><time>2012-03-04T13:39:53Z</time></trkpt><trkpt lat="36.846301518" lon="-4.383815322"><ele>630.760000</ele><time>2012-03-04T13:40:03Z</time></trkpt><trkpt lat="36.846038243" lon="-4.383800402"><ele>630.280000</ele><time>2012-03-04T13:40:21Z</time></trkpt><trkpt lat="36.845842945" lon="-4.383773832"><ele>630.760000</ele><time>2012-03-04T13:40:35Z</time></trkpt><trkpt lat="36.845830204" lon="-4.383768551"><ele>630.760000</ele><time>2012-03-04T13:40:36Z</time></trkpt><trkpt lat="36.845780499" lon="-4.383783136"><ele>629.800000</ele><time>2012-03-04T13:40:41Z</time></trkpt><trkpt lat="36.845559133" lon="-4.383735778"><ele>624.990000</ele><time>2012-03-04T13:40:58Z</time></trkpt><trkpt lat="36.845296277" lon="-4.383639218"><ele>622.590000</ele><time>2012-03-04T13:41:17Z</time></trkpt><trkpt lat="36.845277418" lon="-4.383620443"><ele>623.070000</ele><time>2012-03-04T13:41:20Z</time></trkpt><trkpt lat="36.845235843" lon="-4.383380134"><ele>619.230000</ele><time>2012-03-04T13:41:34Z</time></trkpt><trkpt lat="36.845250595" lon="-4.383303188"><ele>617.780000</ele><time>2012-03-04T13:41:39Z</time></trkpt><trkpt lat="36.845365847" lon="-4.383117864"><ele>613.460000</ele><time>2012-03-04T13:41:53Z</time></trkpt><trkpt lat="36.845452180" lon="-4.383020969"><ele>612.980000</ele><time>2012-03-04T13:42:01Z</time></trkpt><trkpt lat="36.845488139" lon="-4.382962715"><ele>612.980000</ele><time>2012-03-04T13:42:05Z</time></trkpt><trkpt lat="36.845510770" lon="-4.382898510"><ele>612.020000</ele><time>2012-03-04T13:42:09Z</time></trkpt><trkpt lat="36.845504148" lon="-4.382877303"><ele>611.540000</ele><time>2012-03-04T13:42:11Z</time></trkpt><trkpt lat="36.845472464" lon="-4.382829778"><ele>610.090000</ele><time>2012-03-04T13:42:15Z</time></trkpt><trkpt lat="36.845440865" lon="-4.382761465"><ele>611.060000</ele><time>2012-03-04T13:42:19Z</time></trkpt><trkpt lat="36.845209608" lon="-4.382557282"><ele>617.780000</ele><time>2012-03-04T13:42:39Z</time></trkpt><trkpt lat="36.845070384" lon="-4.382312195"><ele>620.190000</ele><time>2012-03-04T13:42:57Z</time></trkpt><trkpt lat="36.845003832" lon="-4.382095020"><ele>618.750000</ele><time>2012-03-04T13:43:14Z</time></trkpt><trkpt lat="36.844917163" lon="-4.381810622"><ele>613.940000</ele><time>2012-03-04T13:43:29Z</time></trkpt><trkpt lat="36.844916912" lon="-4.381792098"><ele>613.460000</ele><time>2012-03-04T13:43:30Z</time></trkpt><trkpt lat="36.844920684" lon="-4.381720098"><ele>611.540000</ele><time>2012-03-04T13:43:34Z</time></trkpt><trkpt lat="36.844963096" lon="-4.381567463"><ele>609.130000</ele><time>2012-03-04T13:43:42Z</time></trkpt><trkpt lat="36.845062254" lon="-4.381448440"><ele>610.570000</ele><time>2012-03-04T13:43:51Z</time></trkpt><trkpt lat="36.845258893" lon="-4.381417008"><ele>613.940000</ele><time>2012-03-04T13:44:04Z</time></trkpt><trkpt lat="36.845284123" lon="-4.381409045"><ele>614.420000</ele><time>2012-03-04T13:44:06Z</time></trkpt><trkpt lat="36.845438099" lon="-4.381381217"><ele>613.460000</ele><time>2012-03-04T13:44:17Z</time></trkpt><trkpt lat="36.845552092" lon="-4.381356156"><ele>613.940000</ele><time>2012-03-04T13:44:24Z</time></trkpt><trkpt lat="36.845689388" lon="-4.381322125"><ele>613.940000</ele><time>2012-03-04T13:44:33Z</time></trkpt><trkpt lat="36.845800951" lon="-4.381251717"><ele>611.060000</ele><time>2012-03-04T13:44:44Z</time></trkpt><trkpt lat="36.845927853" lon="-4.381212741"><ele>604.810000</ele><time>2012-03-04T13:44:53Z</time></trkpt><trkpt lat="36.846068837" lon="-4.381312653"><ele>588.460000</ele><time>2012-03-04T13:45:08Z</time></trkpt><trkpt lat="36.846095575" lon="-4.381310474"><ele>584.140000</ele><time>2012-03-04T13:45:13Z</time></trkpt><trkpt lat="36.846227758" lon="-4.381264709"><ele>582.700000</ele><time>2012-03-04T13:45:24Z</time></trkpt><trkpt lat="36.846333537" lon="-4.381165132"><ele>585.100000</ele><time>2012-03-04T13:45:31Z</time></trkpt><trkpt lat="36.846375782" lon="-4.381130096"><ele>587.500000</ele><time>2012-03-04T13:45:33Z</time></trkpt><trkpt lat="36.846433450" lon="-4.380941754"><ele>590.390000</ele><time>2012-03-04T13:45:47Z</time></trkpt><trkpt lat="36.846485920" lon="-4.380677892"><ele>587.500000</ele><time>2012-03-04T13:46:02Z</time></trkpt><trkpt lat="36.846538140" lon="-4.380528610"><ele>585.100000</ele><time>2012-03-04T13:46:11Z</time></trkpt><trkpt lat="36.846587174" lon="-4.380474631"><ele>585.580000</ele><time>2012-03-04T13:46:15Z</time></trkpt><trkpt lat="36.846836703" lon="-4.380368013"><ele>584.140000</ele><time>2012-03-04T13:46:34Z</time></trkpt><trkpt lat="36.847114312" lon="-4.380392404"><ele>583.180000</ele><time>2012-03-04T13:46:53Z</time></trkpt><trkpt lat="36.847185139" lon="-4.380384022"><ele>583.180000</ele><time>2012-03-04T13:46:58Z</time></trkpt><trkpt lat="36.847240543" lon="-4.380352255"><ele>583.660000</ele><time>2012-03-04T13:47:02Z</time></trkpt><trkpt lat="36.847327547" lon="-4.380283691"><ele>583.180000</ele><time>2012-03-04T13:47:08Z</time></trkpt><trkpt lat="36.847373145" lon="-4.380206410"><ele>581.730000</ele><time>2012-03-04T13:47:14Z</time></trkpt><trkpt lat="36.847385299" lon="-4.380103648"><ele>582.700000</ele><time>2012-03-04T13:47:19Z</time></trkpt><trkpt lat="36.847365014" lon="-4.379999628"><ele>583.660000</ele><time>2012-03-04T13:47:25Z</time></trkpt><trkpt lat="36.847319501" lon="-4.379988983"><ele>583.660000</ele><time>2012-03-04T13:47:29Z</time></trkpt><trkpt lat="36.847198550" lon="-4.379958557"><ele>583.180000</ele><time>2012-03-04T13:47:41Z</time></trkpt><trkpt lat="36.847168040" lon="-4.379944140"><ele>582.700000</ele><time>2012-03-04T13:47:44Z</time></trkpt><trkpt lat="36.847081538" lon="-4.379900722"><ele>582.220000</ele><time>2012-03-04T13:47:53Z</time></trkpt><trkpt lat="36.846896717" lon="-4.379786309"><ele>580.770000</ele><time>2012-03-04T13:48:08Z</time></trkpt><trkpt lat="36.846809629" lon="-4.379779184"><ele>584.140000</ele><time>2012-03-04T13:48:19Z</time></trkpt><trkpt lat="36.846697228" lon="-4.379761163"><ele>584.620000</ele><time>2012-03-04T13:48:27Z</time></trkpt><trkpt lat="36.846525986" lon="-4.379711961"><ele>587.500000</ele><time>2012-03-04T13:48:41Z</time></trkpt><trkpt lat="36.846311577" lon="-4.379669046"><ele>590.390000</ele><time>2012-03-04T13:48:57Z</time></trkpt><trkpt lat="36.846297747" lon="-4.379668292"><ele>590.870000</ele><time>2012-03-04T13:48:58Z</time></trkpt><trkpt lat="36.846167240" lon="-4.379681367"><ele>592.790000</ele><time>2012-03-04T13:49:08Z</time></trkpt><trkpt lat="36.846019384" lon="-4.379635602"><ele>592.310000</ele><time>2012-03-04T13:49:19Z</time></trkpt><trkpt lat="36.845930284" lon="-4.379671561"><ele>593.750000</ele><time>2012-03-04T13:49:26Z</time></trkpt><trkpt lat="36.845734734" lon="-4.379664268"><ele>591.350000</ele><time>2012-03-04T13:49:41Z</time></trkpt><trkpt lat="36.845559804" lon="-4.379620180"><ele>587.020000</ele><time>2012-03-04T13:49:54Z</time></trkpt><trkpt lat="36.845335336" lon="-4.379591933"><ele>584.140000</ele><time>2012-03-04T13:50:10Z</time></trkpt><trkpt lat="36.845270880" lon="-4.379603248"><ele>583.660000</ele><time>2012-03-04T13:50:16Z</time></trkpt><trkpt lat="36.845014980" lon="-4.379730905"><ele>585.580000</ele><time>2012-03-04T13:50:34Z</time></trkpt><trkpt lat="36.844816748" lon="-4.379776167"><ele>585.580000</ele><time>2012-03-04T13:50:48Z</time></trkpt><trkpt lat="36.844779700" lon="-4.379772143"><ele>585.100000</ele><time>2012-03-04T13:50:51Z</time></trkpt><trkpt lat="36.844699401" lon="-4.379673405"><ele>582.220000</ele><time>2012-03-04T13:50:58Z</time></trkpt><trkpt lat="36.844699821" lon="-4.379486153"><ele>580.290000</ele><time>2012-03-04T13:51:08Z</time></trkpt><trkpt lat="36.844729325" lon="-4.379383223"><ele>580.770000</ele><time>2012-03-04T13:51:14Z</time></trkpt><trkpt lat="36.844735695" lon="-4.379295129"><ele>581.250000</ele><time>2012-03-04T13:51:18Z</time></trkpt><trkpt lat="36.844761679" lon="-4.379115840"><ele>580.290000</ele><time>2012-03-04T13:51:28Z</time></trkpt><trkpt lat="36.844803756" lon="-4.379024478"><ele>579.810000</ele><time>2012-03-04T13:51:34Z</time></trkpt><trkpt lat="36.844945326" lon="-4.378719376"><ele>574.530000</ele><time>2012-03-04T13:51:54Z</time></trkpt><trkpt lat="36.845009280" lon="-4.378561545"><ele>568.280000</ele><time>2012-03-04T13:52:08Z</time></trkpt><trkpt lat="36.845083460" lon="-4.378326600"><ele>557.220000</ele><time>2012-03-04T13:52:27Z</time></trkpt><trkpt lat="36.845191000" lon="-4.378138594"><ele>553.860000</ele><time>2012-03-04T13:52:37Z</time></trkpt><trkpt lat="36.845195442" lon="-4.378016973"><ele>554.820000</ele><time>2012-03-04T13:52:43Z</time></trkpt><trkpt lat="36.845258474" lon="-4.377836427"><ele>555.780000</ele><time>2012-03-04T13:52:56Z</time></trkpt><trkpt lat="36.845251182" lon="-4.377809269"><ele>556.740000</ele><time>2012-03-04T13:52:57Z</time></trkpt><trkpt lat="36.845156215" lon="-4.377559405"><ele>560.110000</ele><time>2012-03-04T13:53:08Z</time></trkpt><trkpt lat="36.845119586" lon="-4.377390677"><ele>560.590000</ele><time>2012-03-04T13:53:21Z</time></trkpt><trkpt lat="36.845088238" lon="-4.377370225"><ele>559.140000</ele><time>2012-03-04T13:53:24Z</time></trkpt><trkpt lat="36.845021602" lon="-4.377361257"><ele>556.740000</ele><time>2012-03-04T13:53:29Z</time></trkpt><trkpt lat="36.844974160" lon="-4.377498720"><ele>563.950000</ele><time>2012-03-04T13:53:41Z</time></trkpt><trkpt lat="36.844954044" lon="-4.377543563"><ele>565.390000</ele><time>2012-03-04T13:53:44Z</time></trkpt><trkpt lat="36.844946835" lon="-4.377628723"><ele>566.830000</ele><time>2012-03-04T13:53:50Z</time></trkpt><trkpt lat="36.844854299" lon="-4.377836343"><ele>572.120000</ele><time>2012-03-04T13:54:06Z</time></trkpt><trkpt lat="36.844821693" lon="-4.377876157"><ele>572.600000</ele><time>2012-03-04T13:54:10Z</time></trkpt><trkpt lat="36.844679620" lon="-4.377946816"><ele>572.600000</ele><time>2012-03-04T13:54:22Z</time></trkpt><trkpt lat="36.844524974" lon="-4.378096769"><ele>570.680000</ele><time>2012-03-04T13:54:38Z</time></trkpt><trkpt lat="36.844415925" lon="-4.378212858"><ele>569.720000</ele><time>2012-03-04T13:54:51Z</time></trkpt><trkpt lat="36.844312828" lon="-4.378316123"><ele>573.560000</ele><time>2012-03-04T13:55:04Z</time></trkpt><trkpt lat="36.844131863" lon="-4.378465153"><ele>576.450000</ele><time>2012-03-04T13:55:21Z</time></trkpt><trkpt lat="36.844046284" lon="-4.378631869"><ele>576.930000</ele><time>2012-03-04T13:55:34Z</time></trkpt><trkpt lat="36.843996998" lon="-4.378699763"><ele>576.450000</ele><time>2012-03-04T13:55:40Z</time></trkpt><trkpt lat="36.843893314" lon="-4.378886847"><ele>575.490000</ele><time>2012-03-04T13:55:54Z</time></trkpt><trkpt lat="36.843791138" lon="-4.379012492"><ele>578.370000</ele><time>2012-03-04T13:56:05Z</time></trkpt><trkpt lat="36.843773453" lon="-4.379025316"><ele>578.850000</ele><time>2012-03-04T13:56:07Z</time></trkpt><trkpt lat="36.843755096" lon="-4.379076026"><ele>579.330000</ele><time>2012-03-04T13:56:11Z</time></trkpt><trkpt lat="36.843665410" lon="-4.379283311"><ele>581.730000</ele><time>2012-03-04T13:56:25Z</time></trkpt><trkpt lat="36.843658285" lon="-4.379301416"><ele>581.730000</ele><time>2012-03-04T13:56:26Z</time></trkpt><trkpt lat="36.843604976" lon="-4.379456565"><ele>583.660000</ele><time>2012-03-04T13:56:37Z</time></trkpt><trkpt lat="36.843560468" lon="-4.379592519"><ele>582.700000</ele><time>2012-03-04T13:56:46Z</time></trkpt><trkpt lat="36.843504896" lon="-4.379776083"><ele>582.220000</ele><time>2012-03-04T13:56:59Z</time></trkpt><trkpt lat="36.843458042" lon="-4.379996695"><ele>581.730000</ele><time>2012-03-04T13:57:12Z</time></trkpt><trkpt lat="36.843447145" lon="-4.380023433"><ele>581.730000</ele><time>2012-03-04T13:57:14Z</time></trkpt><trkpt lat="36.843404397" lon="-4.380125860"><ele>579.330000</ele><time>2012-03-04T13:57:21Z</time></trkpt><trkpt lat="36.843163837" lon="-4.380228203"><ele>574.040000</ele><time>2012-03-04T13:57:41Z</time></trkpt><trkpt lat="36.842981111" lon="-4.380286625"><ele>571.160000</ele><time>2012-03-04T13:57:56Z</time></trkpt><trkpt lat="36.842738371" lon="-4.380270699"><ele>566.350000</ele><time>2012-03-04T13:58:15Z</time></trkpt><trkpt lat="36.842537876" lon="-4.380202051"><ele>563.950000</ele><time>2012-03-04T13:58:28Z</time></trkpt><trkpt lat="36.842488507" lon="-4.380159304"><ele>564.910000</ele><time>2012-03-04T13:58:32Z</time></trkpt><trkpt lat="36.842446011" lon="-4.380124267"><ele>565.870000</ele><time>2012-03-04T13:58:37Z</time></trkpt><trkpt lat="36.842370490" lon="-4.380207080"><ele>567.320000</ele><time>2012-03-04T13:58:47Z</time></trkpt><trkpt lat="36.842331179" lon="-4.380437499"><ele>570.200000</ele><time>2012-03-04T13:59:01Z</time></trkpt><trkpt lat="36.842286335" lon="-4.380553840"><ele>569.240000</ele><time>2012-03-04T13:59:06Z</time></trkpt><trkpt lat="36.842251383" lon="-4.380626930"><ele>568.760000</ele><time>2012-03-04T13:59:10Z</time></trkpt><trkpt lat="36.842235206" lon="-4.380698260"><ele>568.280000</ele><time>2012-03-04T13:59:14Z</time></trkpt><trkpt lat="36.842198744" lon="-4.380788785"><ele>566.350000</ele><time>2012-03-04T13:59:20Z</time></trkpt><trkpt lat="36.842093384" lon="-4.380865814"><ele>562.990000</ele><time>2012-03-04T13:59:29Z</time></trkpt><trkpt lat="36.841976875" lon="-4.380835556"><ele>561.550000</ele><time>2012-03-04T13:59:37Z</time></trkpt><trkpt lat="36.841877131" lon="-4.380739750"><ele>558.660000</ele><time>2012-03-04T13:59:48Z</time></trkpt><trkpt lat="36.841819715" lon="-4.380657105"><ele>556.740000</ele><time>2012-03-04T13:59:55Z</time></trkpt><trkpt lat="36.841739165" lon="-4.380568508"><ele>555.780000</ele><time>2012-03-04T14:00:01Z</time></trkpt><trkpt lat="36.841544872" lon="-4.380578902"><ele>557.700000</ele><time>2012-03-04T14:00:14Z</time></trkpt><trkpt lat="36.841513105" lon="-4.380576890"><ele>557.700000</ele><time>2012-03-04T14:00:16Z</time></trkpt><trkpt lat="36.841412522" lon="-4.380606310"><ele>558.180000</ele><time>2012-03-04T14:00:24Z</time></trkpt><trkpt lat="36.841329290" lon="-4.380624415"><ele>558.660000</ele><time>2012-03-04T14:00:32Z</time></trkpt><trkpt lat="36.841261564" lon="-4.380595582"><ele>558.660000</ele><time>2012-03-04T14:00:37Z</time></trkpt><trkpt lat="36.841150336" lon="-4.380625170"><ele>559.140000</ele><time>2012-03-04T14:00:44Z</time></trkpt><trkpt lat="36.841017734" lon="-4.380710246"><ele>560.110000</ele><time>2012-03-04T14:00:56Z</time></trkpt><trkpt lat="36.840957385" lon="-4.380795490"><ele>559.140000</ele><time>2012-03-04T14:01:02Z</time></trkpt><trkpt lat="36.840929221" lon="-4.380815188"><ele>556.740000</ele><time>2012-03-04T14:01:05Z</time></trkpt><trkpt lat="36.840776922" lon="-4.381060442"><ele>550.490000</ele><time>2012-03-04T14:01:22Z</time></trkpt><trkpt lat="36.840697462" lon="-4.381062454"><ele>551.930000</ele><time>2012-03-04T14:01:29Z</time></trkpt><trkpt lat="36.840640381" lon="-4.381001853"><ele>551.930000</ele><time>2012-03-04T14:01:35Z</time></trkpt><trkpt lat="36.840543235" lon="-4.380797669"><ele>548.570000</ele><time>2012-03-04T14:01:49Z</time></trkpt><trkpt lat="36.840474252" lon="-4.380711336"><ele>547.610000</ele><time>2012-03-04T14:01:55Z</time></trkpt><trkpt lat="36.840435192" lon="-4.380687363"><ele>547.610000</ele><time>2012-03-04T14:01:57Z</time></trkpt><trkpt lat="36.840368556" lon="-4.380685519"><ele>547.610000</ele><time>2012-03-04T14:02:01Z</time></trkpt><trkpt lat="36.840341901" lon="-4.380699266"><ele>547.610000</ele><time>2012-03-04T14:02:03Z</time></trkpt><trkpt lat="36.840298232" lon="-4.380709408"><ele>548.090000</ele><time>2012-03-04T14:02:07Z</time></trkpt><trkpt lat="36.840108549" lon="-4.380798256"><ele>548.090000</ele><time>2012-03-04T14:02:23Z</time></trkpt><trkpt lat="36.840049038" lon="-4.380832622"><ele>547.130000</ele><time>2012-03-04T14:02:28Z</time></trkpt><trkpt lat="36.840019701" lon="-4.380863886"><ele>548.570000</ele><time>2012-03-04T14:02:35Z</time></trkpt><trkpt lat="36.840000171" lon="-4.380873358"><ele>549.050000</ele><time>2012-03-04T14:02:37Z</time></trkpt><trkpt lat="36.839870084" lon="-4.380972935"><ele>549.530000</ele><time>2012-03-04T14:02:50Z</time></trkpt><trkpt lat="36.839870084" lon="-4.380972935"><ele>549.530000</ele><time>2012-03-04T14:03:14Z</time></trkpt><trkpt lat="36.839870252" lon="-4.380972767"><ele>549.530000</ele><time>2012-03-04T14:03:44Z</time></trkpt><trkpt lat="36.839867486" lon="-4.380975198"><ele>549.050000</ele><time>2012-03-04T14:04:11Z</time></trkpt><trkpt lat="36.839867318" lon="-4.380977042"><ele>549.050000</ele><time>2012-03-04T14:04:50Z</time></trkpt><trkpt lat="36.839866815" lon="-4.380974947"><ele>549.050000</ele><time>2012-03-04T14:05:23Z</time></trkpt><trkpt lat="36.839866228" lon="-4.380981736"><ele>549.050000</ele><time>2012-03-04T14:05:48Z</time></trkpt><trkpt lat="36.839866228" lon="-4.380981736"><ele>549.050000</ele><time>2012-03-04T14:06:14Z</time></trkpt><trkpt lat="36.839866061" lon="-4.380981401"><ele>549.050000</ele><time>2012-03-04T14:06:39Z</time></trkpt><trkpt lat="36.839866983" lon="-4.380991962"><ele>549.530000</ele><time>2012-03-04T14:07:12Z</time></trkpt><trkpt lat="36.839866983" lon="-4.380991962"><ele>549.530000</ele><time>2012-03-04T14:07:35Z</time></trkpt><trkpt lat="36.839865977" lon="-4.380994979"><ele>549.530000</ele><time>2012-03-04T14:07:59Z</time></trkpt><trkpt lat="36.839872347" lon="-4.380996991"><ele>549.530000</ele><time>2012-03-04T14:08:26Z</time></trkpt><trkpt lat="36.839826917" lon="-4.381028842"><ele>552.900000</ele><time>2012-03-04T14:08:42Z</time></trkpt><trkpt lat="36.839819960" lon="-4.381046780"><ele>553.860000</ele><time>2012-03-04T14:08:56Z</time></trkpt><trkpt lat="36.839711163" lon="-4.381182399"><ele>552.900000</ele><time>2012-03-04T14:09:09Z</time></trkpt><trkpt lat="36.839703787" lon="-4.381196229"><ele>552.410000</ele><time>2012-03-04T14:09:10Z</time></trkpt><trkpt lat="36.839596666" lon="-4.381327489"><ele>551.930000</ele><time>2012-03-04T14:09:23Z</time></trkpt><trkpt lat="36.839532880" lon="-4.381444417"><ele>551.930000</ele><time>2012-03-04T14:09:33Z</time></trkpt><trkpt lat="36.839486612" lon="-4.381533768"><ele>552.900000</ele><time>2012-03-04T14:09:39Z</time></trkpt><trkpt lat="36.839422993" lon="-4.381652875"><ele>553.380000</ele><time>2012-03-04T14:09:49Z</time></trkpt><trkpt lat="36.839306569" lon="-4.381837528"><ele>557.700000</ele><time>2012-03-04T14:10:04Z</time></trkpt><trkpt lat="36.839337749" lon="-4.381792685"><ele>557.700000</ele><time>2012-03-04T14:10:15Z</time></trkpt><trkpt lat="36.839337749" lon="-4.381792685"><ele>557.700000</ele><time>2012-03-04T14:10:30Z</time></trkpt><trkpt lat="36.839295421" lon="-4.381855046"><ele>555.300000</ele><time>2012-03-04T14:10:46Z</time></trkpt><trkpt lat="36.839216547" lon="-4.381929142"><ele>554.340000</ele><time>2012-03-04T14:10:54Z</time></trkpt><trkpt lat="36.839146307" lon="-4.382063588"><ele>554.820000</ele><time>2012-03-04T14:11:05Z</time></trkpt><trkpt lat="36.839008089" lon="-4.382221503"><ele>558.660000</ele><time>2012-03-04T14:11:22Z</time></trkpt><trkpt lat="36.838954361" lon="-4.382277494"><ele>559.620000</ele><time>2012-03-04T14:11:28Z</time></trkpt><trkpt lat="36.838879259" lon="-4.382339101"><ele>558.180000</ele><time>2012-03-04T14:11:36Z</time></trkpt><trkpt lat="36.838722602" lon="-4.382380005"><ele>557.220000</ele><time>2012-03-04T14:11:47Z</time></trkpt><trkpt lat="36.838681111" lon="-4.382374892"><ele>558.660000</ele><time>2012-03-04T14:11:50Z</time></trkpt><trkpt lat="36.838556472" lon="-4.382342789"><ele>561.550000</ele><time>2012-03-04T14:12:03Z</time></trkpt><trkpt lat="36.838547755" lon="-4.382335916"><ele>562.030000</ele><time>2012-03-04T14:12:04Z</time></trkpt><trkpt lat="36.838469133" lon="-4.382279674"><ele>562.030000</ele><time>2012-03-04T14:12:20Z</time></trkpt><trkpt lat="36.838445161" lon="-4.382248242"><ele>562.030000</ele><time>2012-03-04T14:12:33Z</time></trkpt><trkpt lat="36.838426134" lon="-4.382208008"><ele>562.030000</ele><time>2012-03-04T14:12:44Z</time></trkpt><trkpt lat="36.838426134" lon="-4.382208008"><ele>562.030000</ele><time>2012-03-04T14:13:06Z</time></trkpt><trkpt lat="36.838426134" lon="-4.382208008"><ele>562.030000</ele><time>2012-03-04T14:13:13Z</time></trkpt><trkpt lat="36.838365533" lon="-4.382040706"><ele>560.590000</ele><time>2012-03-04T14:13:25Z</time></trkpt><trkpt lat="36.838342147" lon="-4.381964263"><ele>560.110000</ele><time>2012-03-04T14:13:30Z</time></trkpt><trkpt lat="36.838324713" lon="-4.381854292"><ele>561.550000</ele><time>2012-03-04T14:13:35Z</time></trkpt><trkpt lat="36.838338962" lon="-4.381618341"><ele>567.320000</ele><time>2012-03-04T14:13:46Z</time></trkpt><trkpt lat="36.838385817" lon="-4.381503509"><ele>572.120000</ele><time>2012-03-04T14:13:52Z</time></trkpt><trkpt lat="36.838385649" lon="-4.381424217"><ele>575.490000</ele><time>2012-03-04T14:13:56Z</time></trkpt><trkpt lat="36.838393528" lon="-4.381352132"><ele>576.450000</ele><time>2012-03-04T14:14:00Z</time></trkpt><trkpt lat="36.838375507" lon="-4.381152308"><ele>575.490000</ele><time>2012-03-04T14:14:10Z</time></trkpt><trkpt lat="36.838348098" lon="-4.380995482"><ele>574.530000</ele><time>2012-03-04T14:14:21Z</time></trkpt><trkpt lat="36.838340135" lon="-4.380891630"><ele>576.450000</ele><time>2012-03-04T14:14:26Z</time></trkpt><trkpt lat="36.838323204" lon="-4.380844608"><ele>576.450000</ele><time>2012-03-04T14:14:28Z</time></trkpt><trkpt lat="36.838238714" lon="-4.380610166"><ele>579.330000</ele><time>2012-03-04T14:14:45Z</time></trkpt><trkpt lat="36.838107873" lon="-4.380478906"><ele>578.370000</ele><time>2012-03-04T14:14:57Z</time></trkpt><trkpt lat="36.837958004" lon="-4.380359883"><ele>578.370000</ele><time>2012-03-04T14:15:12Z</time></trkpt><trkpt lat="36.837908886" lon="-4.380351668"><ele>577.890000</ele><time>2012-03-04T14:15:18Z</time></trkpt><trkpt lat="36.837847950" lon="-4.380299868"><ele>577.410000</ele><time>2012-03-04T14:15:25Z</time></trkpt><trkpt lat="36.837819032" lon="-4.380269023"><ele>576.930000</ele><time>2012-03-04T14:15:27Z</time></trkpt><trkpt lat="36.837661034" lon="-4.380156789"><ele>575.010000</ele><time>2012-03-04T14:15:40Z</time></trkpt><trkpt lat="36.837540083" lon="-4.380175732"><ele>573.080000</ele><time>2012-03-04T14:15:51Z</time></trkpt><trkpt lat="36.837522816" lon="-4.380203812"><ele>572.120000</ele><time>2012-03-04T14:15:54Z</time></trkpt><trkpt lat="36.837473530" lon="-4.380306155"><ele>571.160000</ele><time>2012-03-04T14:16:02Z</time></trkpt><trkpt lat="36.837368002" lon="-4.380498603"><ele>572.120000</ele><time>2012-03-04T14:16:16Z</time></trkpt><trkpt lat="36.837349059" lon="-4.380526179"><ele>572.120000</ele><time>2012-03-04T14:16:18Z</time></trkpt><trkpt lat="36.837322488" lon="-4.380553924"><ele>571.640000</ele><time>2012-03-04T14:16:20Z</time></trkpt><trkpt lat="36.837247303" lon="-4.380668420"><ele>573.560000</ele><time>2012-03-04T14:16:28Z</time></trkpt><trkpt lat="36.837179577" lon="-4.380746791"><ele>574.530000</ele><time>2012-03-04T14:16:36Z</time></trkpt><trkpt lat="36.837154934" lon="-4.380817032"><ele>575.010000</ele><time>2012-03-04T14:16:41Z</time></trkpt><trkpt lat="36.837075222" lon="-4.380932869"><ele>574.040000</ele><time>2012-03-04T14:16:53Z</time></trkpt><trkpt lat="36.836985033" lon="-4.381021131"><ele>572.600000</ele><time>2012-03-04T14:17:05Z</time></trkpt><trkpt lat="36.836932981" lon="-4.381073266"><ele>574.530000</ele><time>2012-03-04T14:17:12Z</time></trkpt><trkpt lat="36.836866764" lon="-4.381091036"><ele>575.010000</ele><time>2012-03-04T14:17:26Z</time></trkpt><trkpt lat="36.836790070" lon="-4.381111069"><ele>573.080000</ele><time>2012-03-04T14:17:45Z</time></trkpt><trkpt lat="36.836682782" lon="-4.381219614"><ele>575.010000</ele><time>2012-03-04T14:17:53Z</time></trkpt><trkpt lat="36.836560993" lon="-4.381292369"><ele>577.410000</ele><time>2012-03-04T14:18:03Z</time></trkpt><trkpt lat="36.836412298" lon="-4.381341739"><ele>582.220000</ele><time>2012-03-04T14:18:13Z</time></trkpt><trkpt lat="36.836267542" lon="-4.381398819"><ele>582.220000</ele><time>2012-03-04T14:18:24Z</time></trkpt><trkpt lat="36.836150195" lon="-4.381443830"><ele>581.250000</ele><time>2012-03-04T14:18:32Z</time></trkpt><trkpt lat="36.836013738" lon="-4.381491859"><ele>578.370000</ele><time>2012-03-04T14:18:45Z</time></trkpt><trkpt lat="36.835959842" lon="-4.381487835"><ele>577.410000</ele><time>2012-03-04T14:18:50Z</time></trkpt><trkpt lat="36.835921118" lon="-4.381453134"><ele>576.450000</ele><time>2012-03-04T14:18:54Z</time></trkpt><trkpt lat="36.835778710" lon="-4.381325813"><ele>574.040000</ele><time>2012-03-04T14:19:07Z</time></trkpt><trkpt lat="36.835738812" lon="-4.381303098"><ele>573.080000</ele><time>2012-03-04T14:19:11Z</time></trkpt><trkpt lat="36.835681647" lon="-4.381242162"><ele>573.560000</ele><time>2012-03-04T14:19:17Z</time></trkpt><trkpt lat="36.835556505" lon="-4.381111739"><ele>574.530000</ele><time>2012-03-04T14:19:30Z</time></trkpt><trkpt lat="36.835523397" lon="-4.381075529"><ele>575.490000</ele><time>2012-03-04T14:19:42Z</time></trkpt><trkpt lat="36.835499173" lon="-4.381035296"><ele>576.450000</ele><time>2012-03-04T14:19:46Z</time></trkpt><trkpt lat="36.835443014" lon="-4.380940413"><ele>577.410000</ele><time>2012-03-04T14:19:57Z</time></trkpt><trkpt lat="36.835346539" lon="-4.380811919"><ele>577.890000</ele><time>2012-03-04T14:20:10Z</time></trkpt><trkpt lat="36.835319214" lon="-4.380777469"><ele>577.410000</ele><time>2012-03-04T14:20:14Z</time></trkpt><trkpt lat="36.835174207" lon="-4.380594660"><ele>577.890000</ele><time>2012-03-04T14:20:27Z</time></trkpt><trkpt lat="36.835116623" lon="-4.380554846"><ele>579.810000</ele><time>2012-03-04T14:20:39Z</time></trkpt><trkpt lat="36.835059878" lon="-4.380509500"><ele>580.290000</ele><time>2012-03-04T14:20:48Z</time></trkpt><trkpt lat="36.835005395" lon="-4.380461220"><ele>580.770000</ele><time>2012-03-04T14:20:53Z</time></trkpt><trkpt lat="36.834987709" lon="-4.380410928"><ele>581.250000</ele><time>2012-03-04T14:20:55Z</time></trkpt><trkpt lat="36.834826106" lon="-4.380230550"><ele>581.730000</ele><time>2012-03-04T14:21:08Z</time></trkpt><trkpt lat="36.834738012" lon="-4.380078083"><ele>582.220000</ele><time>2012-03-04T14:21:19Z</time></trkpt><trkpt lat="36.834660731" lon="-4.379969202"><ele>581.250000</ele><time>2012-03-04T14:21:26Z</time></trkpt><trkpt lat="36.834642626" lon="-4.379924610"><ele>581.730000</ele><time>2012-03-04T14:21:30Z</time></trkpt><trkpt lat="36.834621085" lon="-4.379904745"><ele>582.700000</ele><time>2012-03-04T14:21:32Z</time></trkpt><trkpt lat="36.834472558" lon="-4.379740544"><ele>583.660000</ele><time>2012-03-04T14:21:45Z</time></trkpt><trkpt lat="36.834464427" lon="-4.379736185"><ele>583.660000</ele><time>2012-03-04T14:21:46Z</time></trkpt><trkpt lat="36.834390415" lon="-4.379650606"><ele>584.140000</ele><time>2012-03-04T14:21:57Z</time></trkpt><trkpt lat="36.834360072" lon="-4.379626801"><ele>584.620000</ele><time>2012-03-04T14:22:00Z</time></trkpt><trkpt lat="36.834309110" lon="-4.379506018"><ele>585.580000</ele><time>2012-03-04T14:22:08Z</time></trkpt><trkpt lat="36.834289916" lon="-4.379458996"><ele>586.060000</ele><time>2012-03-04T14:22:12Z</time></trkpt><trkpt lat="36.834307099" lon="-4.379376266"><ele>585.580000</ele><time>2012-03-04T14:22:18Z</time></trkpt><trkpt lat="36.834345488" lon="-4.379155152"><ele>589.910000</ele><time>2012-03-04T14:22:29Z</time></trkpt><trkpt lat="36.834366443" lon="-4.379116930"><ele>590.870000</ele><time>2012-03-04T14:22:32Z</time></trkpt><trkpt lat="36.834371639" lon="-4.379029842"><ele>590.390000</ele><time>2012-03-04T14:22:38Z</time></trkpt><trkpt lat="36.834379602" lon="-4.378926577"><ele>591.350000</ele><time>2012-03-04T14:22:45Z</time></trkpt><trkpt lat="36.834378848" lon="-4.378895648"><ele>591.830000</ele><time>2012-03-04T14:22:47Z</time></trkpt><trkpt lat="36.834392846" lon="-4.378687441"><ele>589.430000</ele><time>2012-03-04T14:23:01Z</time></trkpt><trkpt lat="36.834437186" lon="-4.378435398"><ele>588.460000</ele><time>2012-03-04T14:23:15Z</time></trkpt><trkpt lat="36.834471300" lon="-4.378305562"><ele>590.390000</ele><time>2012-03-04T14:23:23Z</time></trkpt><trkpt lat="36.834484460" lon="-4.378272705"><ele>590.390000</ele><time>2012-03-04T14:23:26Z</time></trkpt><trkpt lat="36.834461410" lon="-4.378079251"><ele>590.870000</ele><time>2012-03-04T14:23:38Z</time></trkpt><trkpt lat="36.834430061" lon="-4.377911529"><ele>589.430000</ele><time>2012-03-04T14:23:51Z</time></trkpt><trkpt lat="36.834357977" lon="-4.377675243"><ele>587.980000</ele><time>2012-03-04T14:24:09Z</time></trkpt><trkpt lat="36.834279606" lon="-4.377399730"><ele>589.910000</ele><time>2012-03-04T14:24:24Z</time></trkpt><trkpt lat="36.834276253" lon="-4.377387576"><ele>590.390000</ele><time>2012-03-04T14:24:28Z</time></trkpt><trkpt lat="36.834199810" lon="-4.377270648"><ele>591.830000</ele><time>2012-03-04T14:24:40Z</time></trkpt><trkpt lat="36.834076932" lon="-4.377122121"><ele>590.870000</ele><time>2012-03-04T14:24:53Z</time></trkpt><trkpt lat="36.833981881" lon="-4.377062777"><ele>591.350000</ele><time>2012-03-04T14:25:05Z</time></trkpt><trkpt lat="36.833874676" lon="-4.376989519"><ele>590.390000</ele><time>2012-03-04T14:25:14Z</time></trkpt><trkpt lat="36.833861601" lon="-4.376980634"><ele>590.390000</ele><time>2012-03-04T14:25:15Z</time></trkpt><trkpt lat="36.833810639" lon="-4.376936210"><ele>590.390000</ele><time>2012-03-04T14:25:19Z</time></trkpt><trkpt lat="36.833760683" lon="-4.376904443"><ele>591.350000</ele><time>2012-03-04T14:25:24Z</time></trkpt><trkpt lat="36.833694466" lon="-4.376876699"><ele>591.830000</ele><time>2012-03-04T14:25:29Z</time></trkpt><trkpt lat="36.833542669" lon="-4.376748791"><ele>592.310000</ele><time>2012-03-04T14:25:42Z</time></trkpt><trkpt lat="36.833470417" lon="-4.376635803"><ele>592.790000</ele><time>2012-03-04T14:25:54Z</time></trkpt><trkpt lat="36.833403865" lon="-4.376525162"><ele>592.790000</ele><time>2012-03-04T14:26:05Z</time></trkpt><trkpt lat="36.833385257" lon="-4.376513930"><ele>592.310000</ele><time>2012-03-04T14:26:08Z</time></trkpt><trkpt lat="36.833254751" lon="-4.376378311"><ele>590.870000</ele><time>2012-03-04T14:26:23Z</time></trkpt><trkpt lat="36.833112678" lon="-4.376241602"><ele>588.950000</ele><time>2012-03-04T14:26:40Z</time></trkpt><trkpt lat="36.832980160" lon="-4.376075137"><ele>590.870000</ele><time>2012-03-04T14:26:57Z</time></trkpt><trkpt lat="36.832883516" lon="-4.375908840"><ele>596.640000</ele><time>2012-03-04T14:27:13Z</time></trkpt><trkpt lat="36.832822412" lon="-4.375790488"><ele>604.330000</ele><time>2012-03-04T14:27:25Z</time></trkpt><trkpt lat="36.832771953" lon="-4.375640452"><ele>606.730000</ele><time>2012-03-04T14:27:41Z</time></trkpt><trkpt lat="36.832764158" lon="-4.375615222"><ele>606.730000</ele><time>2012-03-04T14:27:44Z</time></trkpt><trkpt lat="36.832675813" lon="-4.375344906"><ele>607.690000</ele><time>2012-03-04T14:27:59Z</time></trkpt><trkpt lat="36.832674136" lon="-4.375193529"><ele>607.690000</ele><time>2012-03-04T14:28:13Z</time></trkpt><trkpt lat="36.832705988" lon="-4.375100490"><ele>607.210000</ele><time>2012-03-04T14:28:22Z</time></trkpt><trkpt lat="36.832789555" lon="-4.374852805"><ele>604.330000</ele><time>2012-03-04T14:28:40Z</time></trkpt><trkpt lat="36.832859879" lon="-4.374627834"><ele>601.920000</ele><time>2012-03-04T14:28:56Z</time></trkpt><trkpt lat="36.832873039" lon="-4.374576705"><ele>600.480000</ele><time>2012-03-04T14:28:59Z</time></trkpt><trkpt lat="36.832857784" lon="-4.374368833"><ele>595.670000</ele><time>2012-03-04T14:29:13Z</time></trkpt><trkpt lat="36.832838338" lon="-4.374293312"><ele>595.190000</ele><time>2012-03-04T14:29:27Z</time></trkpt><trkpt lat="36.832821574" lon="-4.374251152"><ele>597.120000</ele><time>2012-03-04T14:29:29Z</time></trkpt><trkpt lat="36.832777821" lon="-4.374144366"><ele>598.080000</ele><time>2012-03-04T14:29:34Z</time></trkpt><trkpt lat="36.832749154" lon="-4.374030121"><ele>602.880000</ele><time>2012-03-04T14:29:39Z</time></trkpt><trkpt lat="36.832729122" lon="-4.373977985"><ele>608.170000</ele><time>2012-03-04T14:29:43Z</time></trkpt><trkpt lat="36.832678663" lon="-4.373923503"><ele>610.090000</ele><time>2012-03-04T14:29:58Z</time></trkpt><trkpt lat="36.832658798" lon="-4.373886455"><ele>609.610000</ele><time>2012-03-04T14:30:04Z</time></trkpt><trkpt lat="36.832630131" lon="-4.373858459"><ele>610.090000</ele><time>2012-03-04T14:30:08Z</time></trkpt><trkpt lat="36.832548073" lon="-4.373608846"><ele>614.420000</ele><time>2012-03-04T14:30:21Z</time></trkpt><trkpt lat="36.832500128" lon="-4.373388486"><ele>616.340000</ele><time>2012-03-04T14:30:36Z</time></trkpt><trkpt lat="36.832502810" lon="-4.373271978"><ele>616.340000</ele><time>2012-03-04T14:30:44Z</time></trkpt><trkpt lat="36.832529884" lon="-4.373201570"><ele>616.340000</ele><time>2012-03-04T14:30:49Z</time></trkpt><trkpt lat="36.832631389" lon="-4.373009456"><ele>611.540000</ele><time>2012-03-04T14:31:04Z</time></trkpt><trkpt lat="36.832671706" lon="-4.372933433"><ele>608.650000</ele><time>2012-03-04T14:31:10Z</time></trkpt><trkpt lat="36.832714789" lon="-4.372847769"><ele>608.650000</ele><time>2012-03-04T14:31:15Z</time></trkpt><trkpt lat="36.832752088" lon="-4.372789096"><ele>608.650000</ele><time>2012-03-04T14:31:24Z</time></trkpt><trkpt lat="36.832768181" lon="-4.372771746"><ele>608.650000</ele><time>2012-03-04T14:31:27Z</time></trkpt><trkpt lat="36.832803888" lon="-4.372692453"><ele>608.650000</ele><time>2012-03-04T14:31:31Z</time></trkpt><trkpt lat="36.832873877" lon="-4.372538729"><ele>610.090000</ele><time>2012-03-04T14:31:36Z</time></trkpt><trkpt lat="36.832938083" lon="-4.372390788"><ele>612.020000</ele><time>2012-03-04T14:31:41Z</time></trkpt><trkpt lat="36.832974879" lon="-4.372313842"><ele>613.940000</ele><time>2012-03-04T14:31:45Z</time></trkpt><trkpt lat="36.833006898" lon="-4.372258941"><ele>614.900000</ele><time>2012-03-04T14:31:49Z</time></trkpt><trkpt lat="36.833018968" lon="-4.372097589"><ele>614.900000</ele><time>2012-03-04T14:32:01Z</time></trkpt><trkpt lat="36.833010251" lon="-4.371967251"><ele>614.420000</ele><time>2012-03-04T14:32:15Z</time></trkpt><trkpt lat="36.833010251" lon="-4.371967251"><ele>614.420000</ele><time>2012-03-04T14:32:35Z</time></trkpt><trkpt lat="36.832989883" lon="-4.371814448"><ele>614.900000</ele><time>2012-03-04T14:32:51Z</time></trkpt><trkpt lat="36.832975298" lon="-4.371670950"><ele>617.300000</ele><time>2012-03-04T14:33:03Z</time></trkpt><trkpt lat="36.832938334" lon="-4.371484788"><ele>621.150000</ele><time>2012-03-04T14:33:18Z</time></trkpt><trkpt lat="36.832945459" lon="-4.371429551"><ele>622.110000</ele><time>2012-03-04T14:33:22Z</time></trkpt><trkpt lat="36.832914110" lon="-4.371200809"><ele>623.550000</ele><time>2012-03-04T14:33:38Z</time></trkpt><trkpt lat="36.832902040" lon="-4.371009283"><ele>624.510000</ele><time>2012-03-04T14:33:51Z</time></trkpt><trkpt lat="36.832873542" lon="-4.370799484"><ele>625.960000</ele><time>2012-03-04T14:34:06Z</time></trkpt><trkpt lat="36.832869100" lon="-4.370606532"><ele>627.400000</ele><time>2012-03-04T14:34:22Z</time></trkpt><trkpt lat="36.832811432" lon="-4.370415090"><ele>629.800000</ele><time>2012-03-04T14:34:37Z</time></trkpt><trkpt lat="36.832759799" lon="-4.370335629"><ele>631.240000</ele><time>2012-03-04T14:34:45Z</time></trkpt><trkpt lat="36.832722584" lon="-4.370295312"><ele>631.720000</ele><time>2012-03-04T14:34:49Z</time></trkpt><trkpt lat="36.832618145" lon="-4.370253403"><ele>631.720000</ele><time>2012-03-04T14:34:59Z</time></trkpt><trkpt lat="36.832462242" lon="-4.370244686"><ele>630.760000</ele><time>2012-03-04T14:35:12Z</time></trkpt><trkpt lat="36.832359647" lon="-4.370251643"><ele>630.280000</ele><time>2012-03-04T14:35:21Z</time></trkpt><trkpt lat="36.832232913" lon="-4.370202189"><ele>630.280000</ele><time>2012-03-04T14:35:30Z</time></trkpt><trkpt lat="36.832084972" lon="-4.370056680"><ele>630.280000</ele><time>2012-03-04T14:35:44Z</time></trkpt><trkpt lat="36.832017331" lon="-4.369924329"><ele>629.800000</ele><time>2012-03-04T14:35:52Z</time></trkpt><trkpt lat="36.831896463" lon="-4.369722661"><ele>630.280000</ele><time>2012-03-04T14:36:06Z</time></trkpt><trkpt lat="36.831901744" lon="-4.369714363"><ele>630.760000</ele><time>2012-03-04T14:36:10Z</time></trkpt><trkpt lat="36.831905432" lon="-4.369721739"><ele>628.840000</ele><time>2012-03-04T14:36:21Z</time></trkpt><trkpt lat="36.831881208" lon="-4.369658623"><ele>626.920000</ele><time>2012-03-04T14:36:31Z</time></trkpt><trkpt lat="36.831855224" lon="-4.369547144"><ele>625.470000</ele><time>2012-03-04T14:36:40Z</time></trkpt><trkpt lat="36.831852291" lon="-4.369520154"><ele>625.470000</ele><time>2012-03-04T14:36:42Z</time></trkpt><trkpt lat="36.831844328" lon="-4.369439185"><ele>624.990000</ele><time>2012-03-04T14:36:47Z</time></trkpt><trkpt lat="36.831831001" lon="-4.369210275"><ele>625.960000</ele><time>2012-03-04T14:37:05Z</time></trkpt><trkpt lat="36.831806274" lon="-4.368964266"><ele>626.440000</ele><time>2012-03-04T14:37:23Z</time></trkpt><trkpt lat="36.831689766" lon="-4.368736614"><ele>627.880000</ele><time>2012-03-04T14:37:40Z</time></trkpt><trkpt lat="36.831610389" lon="-4.368524719"><ele>629.320000</ele><time>2012-03-04T14:37:56Z</time></trkpt><trkpt lat="36.831585495" lon="-4.368333360"><ele>631.720000</ele><time>2012-03-04T14:38:11Z</time></trkpt><trkpt lat="36.831563534" lon="-4.368127752"><ele>633.170000</ele><time>2012-03-04T14:38:27Z</time></trkpt><trkpt lat="36.831562361" lon="-4.368114341"><ele>633.170000</ele><time>2012-03-04T14:38:28Z</time></trkpt><trkpt lat="36.831562361" lon="-4.368082741"><ele>632.680000</ele><time>2012-03-04T14:38:30Z</time></trkpt><trkpt lat="36.831522128" lon="-4.367918624"><ele>631.240000</ele><time>2012-03-04T14:38:42Z</time></trkpt><trkpt lat="36.831516177" lon="-4.367868919"><ele>631.240000</ele><time>2012-03-04T14:38:59Z</time></trkpt><trkpt lat="36.831498407" lon="-4.367820974"><ele>630.760000</ele><time>2012-03-04T14:39:11Z</time></trkpt><trkpt lat="36.831475524" lon="-4.367580162"><ele>631.240000</ele><time>2012-03-04T14:39:29Z</time></trkpt><trkpt lat="36.831460940" lon="-4.367558034"><ele>631.720000</ele><time>2012-03-04T14:39:31Z</time></trkpt><trkpt lat="36.831260948" lon="-4.367417805"><ele>634.610000</ele><time>2012-03-04T14:39:48Z</time></trkpt><trkpt lat="36.831076294" lon="-4.367417805"><ele>638.450000</ele><time>2012-03-04T14:40:05Z</time></trkpt><trkpt lat="36.830921229" lon="-4.367450327"><ele>642.300000</ele><time>2012-03-04T14:40:22Z</time></trkpt><trkpt lat="36.830735738" lon="-4.367453260"><ele>639.410000</ele><time>2012-03-04T14:40:38Z</time></trkpt><trkpt lat="36.830702126" lon="-4.367444040"><ele>639.410000</ele><time>2012-03-04T14:40:41Z</time></trkpt><trkpt lat="36.830463493" lon="-4.367392492"><ele>639.890000</ele><time>2012-03-04T14:40:59Z</time></trkpt><trkpt lat="36.830302896" lon="-4.367374554"><ele>638.930000</ele><time>2012-03-04T14:41:14Z</time></trkpt><trkpt lat="36.830252353" lon="-4.367347900"><ele>638.450000</ele><time>2012-03-04T14:41:19Z</time></trkpt><trkpt lat="36.830144059" lon="-4.367259638"><ele>638.450000</ele><time>2012-03-04T14:41:35Z</time></trkpt><trkpt lat="36.830083542" lon="-4.367202725"><ele>639.890000</ele><time>2012-03-04T14:41:55Z</time></trkpt><trkpt lat="36.829927973" lon="-4.367043050"><ele>642.780000</ele><time>2012-03-04T14:42:12Z</time></trkpt><trkpt lat="36.829761006" lon="-4.366937941"><ele>644.220000</ele><time>2012-03-04T14:42:28Z</time></trkpt><trkpt lat="36.829648940" lon="-4.366827384"><ele>645.180000</ele><time>2012-03-04T14:42:40Z</time></trkpt><trkpt lat="36.829528073" lon="-4.366677767"><ele>646.620000</ele><time>2012-03-04T14:42:56Z</time></trkpt><trkpt lat="36.829420198" lon="-4.366501663"><ele>649.030000</ele><time>2012-03-04T14:43:14Z</time></trkpt><trkpt lat="36.829408631" lon="-4.366473751"><ele>649.510000</ele><time>2012-03-04T14:43:16Z</time></trkpt><trkpt lat="36.829389520" lon="-4.366249451"><ele>654.800000</ele><time>2012-03-04T14:43:34Z</time></trkpt><trkpt lat="36.829411816" lon="-4.366027331"><ele>657.200000</ele><time>2012-03-04T14:43:50Z</time></trkpt><trkpt lat="36.829418186" lon="-4.365934711"><ele>659.120000</ele><time>2012-03-04T14:43:59Z</time></trkpt><trkpt lat="36.829321291" lon="-4.365757015"><ele>655.280000</ele><time>2012-03-04T14:44:14Z</time></trkpt><trkpt lat="36.829195060" lon="-4.365667999"><ele>652.870000</ele><time>2012-03-04T14:44:27Z</time></trkpt><trkpt lat="36.829077294" lon="-4.365585437"><ele>650.470000</ele><time>2012-03-04T14:44:41Z</time></trkpt><trkpt lat="36.828973610" lon="-4.365463480"><ele>650.470000</ele><time>2012-03-04T14:44:56Z</time></trkpt><trkpt lat="36.828872105" lon="-4.365327191"><ele>651.430000</ele><time>2012-03-04T14:45:11Z</time></trkpt><trkpt lat="36.828697678" lon="-4.365164079"><ele>648.550000</ele><time>2012-03-04T14:45:29Z</time></trkpt><trkpt lat="36.828659037" lon="-4.365130635"><ele>647.590000</ele><time>2012-03-04T14:45:42Z</time></trkpt><trkpt lat="36.828636574" lon="-4.365089731"><ele>648.070000</ele><time>2012-03-04T14:46:08Z</time></trkpt><trkpt lat="36.828500116" lon="-4.364926955"><ele>649.990000</ele><time>2012-03-04T14:46:23Z</time></trkpt><trkpt lat="36.828462733" lon="-4.364899043"><ele>649.510000</ele><time>2012-03-04T14:46:26Z</time></trkpt><trkpt lat="36.828340692" lon="-4.364830144"><ele>650.950000</ele><time>2012-03-04T14:46:39Z</time></trkpt><trkpt lat="36.828206498" lon="-4.364725621"><ele>652.870000</ele><time>2012-03-04T14:46:52Z</time></trkpt><trkpt lat="36.828064174" lon="-4.364650520"><ele>650.950000</ele><time>2012-03-04T14:47:06Z</time></trkpt><trkpt lat="36.828018492" lon="-4.364581537"><ele>650.950000</ele><time>2012-03-04T14:47:14Z</time></trkpt><trkpt lat="36.827895613" lon="-4.364453545"><ele>653.350000</ele><time>2012-03-04T14:47:30Z</time></trkpt><trkpt lat="36.827789079" lon="-4.364278950"><ele>660.080000</ele><time>2012-03-04T14:47:45Z</time></trkpt><trkpt lat="36.827781033" lon="-4.364272999"><ele>660.560000</ele><time>2012-03-04T14:47:46Z</time></trkpt><trkpt lat="36.827664692" lon="-4.364195298"><ele>664.410000</ele><time>2012-03-04T14:47:58Z</time></trkpt><trkpt lat="36.827622615" lon="-4.364184486"><ele>664.410000</ele><time>2012-03-04T14:48:02Z</time></trkpt><trkpt lat="36.827498898" lon="-4.364143834"><ele>664.410000</ele><time>2012-03-04T14:48:15Z</time></trkpt><trkpt lat="36.827452797" lon="-4.364157748"><ele>664.410000</ele><time>2012-03-04T14:48:28Z</time></trkpt><trkpt lat="36.827238137" lon="-4.364175433"><ele>664.410000</ele><time>2012-03-04T14:48:45Z</time></trkpt><trkpt lat="36.827154988" lon="-4.364135116"><ele>664.890000</ele><time>2012-03-04T14:48:59Z</time></trkpt><trkpt lat="36.827233862" lon="-4.364061272"><ele>664.890000</ele><time>2012-03-04T14:49:14Z</time></trkpt><trkpt lat="36.827161945" lon="-4.364088681"><ele>668.730000</ele><time>2012-03-04T14:49:26Z</time></trkpt><trkpt lat="36.827117354" lon="-4.364066217"><ele>666.330000</ele><time>2012-03-04T14:49:37Z</time></trkpt><trkpt lat="36.827159934" lon="-4.363998491"><ele>665.850000</ele><time>2012-03-04T14:49:53Z</time></trkpt><trkpt lat="36.827178458" lon="-4.363993295"><ele>665.850000</ele><time>2012-03-04T14:50:05Z</time></trkpt><trkpt lat="36.827216260" lon="-4.364067810"><ele>667.290000</ele><time>2012-03-04T14:50:21Z</time></trkpt><trkpt lat="36.827229839" lon="-4.364123466"><ele>666.810000</ele><time>2012-03-04T14:50:35Z</time></trkpt><trkpt lat="36.827117605" lon="-4.364188341"><ele>665.850000</ele><time>2012-03-04T14:50:46Z</time></trkpt><trkpt lat="36.827193797" lon="-4.364194460"><ele>663.450000</ele><time>2012-03-04T14:50:55Z</time></trkpt><trkpt lat="36.827272503" lon="-4.364180714"><ele>661.520000</ele><time>2012-03-04T14:51:01Z</time></trkpt><trkpt lat="36.827088771" lon="-4.364140062"><ele>657.680000</ele><time>2012-03-04T14:51:19Z</time></trkpt><trkpt lat="36.827092292" lon="-4.364124974"><ele>658.160000</ele><time>2012-03-04T14:51:33Z</time></trkpt><trkpt lat="36.827141661" lon="-4.364015926"><ele>660.560000</ele><time>2012-03-04T14:51:44Z</time></trkpt><trkpt lat="36.827152809" lon="-4.363992121"><ele>662.490000</ele><time>2012-03-04T14:51:48Z</time></trkpt><trkpt lat="36.827190192" lon="-4.363945015"><ele>663.930000</ele><time>2012-03-04T14:51:57Z</time></trkpt><trkpt lat="36.827226318" lon="-4.363904027"><ele>665.370000</ele><time>2012-03-04T14:52:08Z</time></trkpt><trkpt lat="36.827261690" lon="-4.363879217"><ele>667.290000</ele><time>2012-03-04T14:52:19Z</time></trkpt><trkpt lat="36.827263115" lon="-4.363882570"><ele>667.290000</ele><time>2012-03-04T14:52:28Z</time></trkpt><trkpt lat="36.827238975" lon="-4.363895645"><ele>667.770000</ele><time>2012-03-04T14:52:35Z</time></trkpt><trkpt lat="36.827208214" lon="-4.363915594"><ele>667.770000</ele><time>2012-03-04T14:52:38Z</time></trkpt><trkpt lat="36.827139398" lon="-4.364025984"><ele>663.930000</ele><time>2012-03-04T14:52:53Z</time></trkpt><trkpt lat="36.827103859" lon="-4.364070660"><ele>662.010000</ele><time>2012-03-04T14:53:11Z</time></trkpt><trkpt lat="36.827103859" lon="-4.364070660"><ele>662.010000</ele><time>2012-03-04T14:53:44Z</time></trkpt><trkpt lat="36.827107128" lon="-4.364091111"><ele>662.970000</ele><time>2012-03-04T14:54:04Z</time></trkpt><trkpt lat="36.827091957" lon="-4.364098571"><ele>665.850000</ele><time>2012-03-04T14:54:18Z</time></trkpt><trkpt lat="36.827095728" lon="-4.364096308"><ele>665.850000</ele><time>2012-03-04T14:54:38Z</time></trkpt><trkpt lat="36.827094974" lon="-4.364099326"><ele>665.850000</ele><time>2012-03-04T14:55:02Z</time></trkpt><trkpt lat="36.827080557" lon="-4.364156574"><ele>666.810000</ele><time>2012-03-04T14:55:21Z</time></trkpt><trkpt lat="36.827036720" lon="-4.364110977"><ele>665.850000</ele><time>2012-03-04T14:55:27Z</time></trkpt><trkpt lat="36.826917278" lon="-4.363984410"><ele>662.970000</ele><time>2012-03-04T14:55:42Z</time></trkpt><trkpt lat="36.826802697" lon="-4.363946104"><ele>660.560000</ele><time>2012-03-04T14:55:53Z</time></trkpt><trkpt lat="36.826690966" lon="-4.363864213"><ele>657.680000</ele><time>2012-03-04T14:56:01Z</time></trkpt><trkpt lat="36.826604549" lon="-4.363745442"><ele>656.240000</ele><time>2012-03-04T14:56:14Z</time></trkpt><trkpt lat="36.826581331" lon="-4.363732282"><ele>656.240000</ele><time>2012-03-04T14:56:17Z</time></trkpt><trkpt lat="36.826563478" lon="-4.363721218"><ele>655.760000</ele><time>2012-03-04T14:56:19Z</time></trkpt><trkpt lat="36.826537158" lon="-4.363693055"><ele>656.720000</ele><time>2012-03-04T14:56:22Z</time></trkpt><trkpt lat="36.826468511" lon="-4.363640836"><ele>659.120000</ele><time>2012-03-04T14:56:33Z</time></trkpt><trkpt lat="36.826366251" lon="-4.363589874"><ele>660.560000</ele><time>2012-03-04T14:56:46Z</time></trkpt><trkpt lat="36.826353762" lon="-4.363586102"><ele>661.040000</ele><time>2012-03-04T14:56:47Z</time></trkpt><trkpt lat="36.826213785" lon="-4.363564393"><ele>663.930000</ele><time>2012-03-04T14:56:58Z</time></trkpt><trkpt lat="36.826185370" lon="-4.363557352"><ele>664.410000</ele><time>2012-03-04T14:57:00Z</time></trkpt><trkpt lat="36.826183023" lon="-4.363632286"><ele>666.810000</ele><time>2012-03-04T14:57:12Z</time></trkpt><trkpt lat="36.826253263" lon="-4.363780813"><ele>670.180000</ele><time>2012-03-04T14:57:27Z</time></trkpt><trkpt lat="36.826240523" lon="-4.363846695"><ele>672.580000</ele><time>2012-03-04T14:57:40Z</time></trkpt><trkpt lat="36.826194925" lon="-4.363887264"><ele>675.940000</ele><time>2012-03-04T14:57:51Z</time></trkpt><trkpt lat="36.826130720" lon="-4.364009136"><ele>678.350000</ele><time>2012-03-04T14:58:00Z</time></trkpt><trkpt lat="36.826043548" lon="-4.364105277"><ele>680.750000</ele><time>2012-03-04T14:58:08Z</time></trkpt><trkpt lat="36.825992754" lon="-4.364123466"><ele>681.710000</ele><time>2012-03-04T14:58:12Z</time></trkpt><trkpt lat="36.825822601" lon="-4.364225725"><ele>682.190000</ele><time>2012-03-04T14:58:28Z</time></trkpt><trkpt lat="36.825671811" lon="-4.364389842"><ele>685.080000</ele><time>2012-03-04T14:58:43Z</time></trkpt><trkpt lat="36.825545998" lon="-4.364479613"><ele>685.560000</ele><time>2012-03-04T14:58:56Z</time></trkpt><trkpt lat="36.825541556" lon="-4.364475338"><ele>685.560000</ele><time>2012-03-04T14:59:18Z</time></trkpt><trkpt lat="36.825541556" lon="-4.364475338"><ele>685.560000</ele><time>2012-03-04T14:59:51Z</time></trkpt></trkseg></trk></gpx>
